<?xml version="1.0" encoding="UTF-8" standalone="no" ?>
<gpx xmlns="http://www.topografix.com/GPX/1/1" xmlns:xsi="http://www.w3.org/2001/XMLSchema-instance" xsi:schemaLocation="http://www.topografix.com/GPX/1/1 http://www.topografix.com/GPX/1/1/gpx.xsd" version="1.1" creator="VisuGPX - https://www.visugpx.com">
  <metadata>
    <name>Col d'Anterne</name>
    <desc><![CDATA[Parti tard, ce qui a permis de profiter d'une neige bien décaillée et souple au retour.]]></desc>
  </metadata>
  <trk>
    <name><![CDATA[Col d'Anterne]]></name>
    <trkseg>
      <trkpt lat="45.95104" lon="6.73969">
        <ele>1355</ele>
        <time>2022-01-23T09:39:53Z</time>
      </trkpt>
      <trkpt lat="45.95097" lon="6.73983">
        <ele>1356</ele>
        <time>2022-01-23T09:40:02Z</time>
      </trkpt>
      <trkpt lat="45.95081" lon="6.74007">
        <ele>1357</ele>
        <time>2022-01-23T09:41:13Z</time>
      </trkpt>
      <trkpt lat="45.95043" lon="6.74041">
        <ele>1359</ele>
        <time>2022-01-23T09:41:33Z</time>
      </trkpt>
      <trkpt lat="45.9503" lon="6.74039">
        <ele>1360</ele>
        <time>2022-01-23T09:41:43Z</time>
      </trkpt>
      <trkpt lat="45.95019" lon="6.74045">
        <ele>1360</ele>
        <time>2022-01-23T09:41:48Z</time>
      </trkpt>
      <trkpt lat="45.94987" lon="6.74095">
        <ele>1358</ele>
        <time>2022-01-23T09:42:21Z</time>
      </trkpt>
      <trkpt lat="45.94951" lon="6.7416">
        <ele>1352</ele>
        <time>2022-01-23T09:42:38Z</time>
      </trkpt>
      <trkpt lat="45.94919" lon="6.74262">
        <ele>1350</ele>
        <time>2022-01-23T09:43:07Z</time>
      </trkpt>
      <trkpt lat="45.94918" lon="6.74278">
        <ele>1350</ele>
        <time>2022-01-23T09:43:11Z</time>
      </trkpt>
      <trkpt lat="45.94923" lon="6.74292">
        <ele>1351</ele>
        <time>2022-01-23T09:45:35Z</time>
      </trkpt>
      <trkpt lat="45.94923" lon="6.74309">
        <ele>1351</ele>
        <time>2022-01-23T09:45:40Z</time>
      </trkpt>
      <trkpt lat="45.94917" lon="6.74347">
        <ele>1352</ele>
        <time>2022-01-23T09:45:52Z</time>
      </trkpt>
      <trkpt lat="45.94915" lon="6.7437">
        <ele>1351</ele>
        <time>2022-01-23T09:45:56Z</time>
      </trkpt>
      <trkpt lat="45.94913" lon="6.74391">
        <ele>1349</ele>
        <time>2022-01-23T09:45:59Z</time>
      </trkpt>
      <trkpt lat="45.94914" lon="6.74435">
        <ele>1346</ele>
        <time>2022-01-23T09:46:07Z</time>
      </trkpt>
      <trkpt lat="45.94922" lon="6.74477">
        <ele>1346</ele>
        <time>2022-01-23T09:46:19Z</time>
      </trkpt>
      <trkpt lat="45.94926" lon="6.74499">
        <ele>1346</ele>
        <time>2022-01-23T09:46:26Z</time>
      </trkpt>
      <trkpt lat="45.94936" lon="6.74498">
        <ele>1343</ele>
        <time>2022-01-23T09:48:07Z</time>
      </trkpt>
      <trkpt lat="45.94942" lon="6.74497">
        <ele>1340</ele>
        <time>2022-01-23T09:49:04Z</time>
      </trkpt>
      <trkpt lat="45.94936" lon="6.74482">
        <ele>1338</ele>
        <time>2022-01-23T09:51:26Z</time>
      </trkpt>
      <trkpt lat="45.94932" lon="6.74471">
        <ele>1336</ele>
        <time>2022-01-23T09:51:35Z</time>
      </trkpt>
      <trkpt lat="45.94926" lon="6.74458">
        <ele>1336</ele>
        <time>2022-01-23T09:51:41Z</time>
      </trkpt>
      <trkpt lat="45.94923" lon="6.74426">
        <ele>1335</ele>
        <time>2022-01-23T09:51:55Z</time>
      </trkpt>
      <trkpt lat="45.94917" lon="6.74399">
        <ele>1334</ele>
        <time>2022-01-23T09:52:31Z</time>
      </trkpt>
      <trkpt lat="45.94921" lon="6.74381">
        <ele>1333</ele>
        <time>2022-01-23T09:52:43Z</time>
      </trkpt>
      <trkpt lat="45.94923" lon="6.7437">
        <ele>1332</ele>
        <time>2022-01-23T09:52:53Z</time>
      </trkpt>
      <trkpt lat="45.9493" lon="6.74364">
        <ele>1334</ele>
        <time>2022-01-23T09:53:20Z</time>
      </trkpt>
      <trkpt lat="45.94938" lon="6.74365">
        <ele>1338</ele>
        <time>2022-01-23T09:53:33Z</time>
      </trkpt>
      <trkpt lat="45.94945" lon="6.74368">
        <ele>1340</ele>
        <time>2022-01-23T09:53:52Z</time>
      </trkpt>
      <trkpt lat="45.94952" lon="6.7437">
        <ele>1345</ele>
        <time>2022-01-23T09:54:07Z</time>
      </trkpt>
      <trkpt lat="45.94961" lon="6.74375">
        <ele>1347</ele>
        <time>2022-01-23T09:54:28Z</time>
      </trkpt>
      <trkpt lat="45.94975" lon="6.74382">
        <ele>1350</ele>
        <time>2022-01-23T09:55:01Z</time>
      </trkpt>
      <trkpt lat="45.94985" lon="6.74388">
        <ele>1352</ele>
        <time>2022-01-23T09:55:10Z</time>
      </trkpt>
      <trkpt lat="45.94989" lon="6.74397">
        <ele>1356</ele>
        <time>2022-01-23T09:55:35Z</time>
      </trkpt>
      <trkpt lat="45.94985" lon="6.7442">
        <ele>1359</ele>
        <time>2022-01-23T09:55:52Z</time>
      </trkpt>
      <trkpt lat="45.94981" lon="6.74435">
        <ele>1360</ele>
        <time>2022-01-23T09:55:57Z</time>
      </trkpt>
      <trkpt lat="45.94978" lon="6.74456">
        <ele>1361</ele>
        <time>2022-01-23T09:56:04Z</time>
      </trkpt>
      <trkpt lat="45.94975" lon="6.74466">
        <ele>1361</ele>
        <time>2022-01-23T09:56:08Z</time>
      </trkpt>
      <trkpt lat="45.94975" lon="6.7448">
        <ele>1360</ele>
        <time>2022-01-23T09:56:13Z</time>
      </trkpt>
      <trkpt lat="45.94974" lon="6.74552">
        <ele>1359</ele>
        <time>2022-01-23T09:56:44Z</time>
      </trkpt>
      <trkpt lat="45.94971" lon="6.74595">
        <ele>1359</ele>
        <time>2022-01-23T09:57:01Z</time>
      </trkpt>
      <trkpt lat="45.94968" lon="6.74616">
        <ele>1358</ele>
        <time>2022-01-23T09:57:11Z</time>
      </trkpt>
      <trkpt lat="45.94963" lon="6.74653">
        <ele>1358</ele>
        <time>2022-01-23T09:57:26Z</time>
      </trkpt>
      <trkpt lat="45.94957" lon="6.74685">
        <ele>1360</ele>
        <time>2022-01-23T09:57:44Z</time>
      </trkpt>
      <trkpt lat="45.94951" lon="6.74734">
        <ele>1362</ele>
        <time>2022-01-23T09:58:09Z</time>
      </trkpt>
      <trkpt lat="45.94954" lon="6.74743">
        <ele>1361</ele>
        <time>2022-01-23T09:58:14Z</time>
      </trkpt>
      <trkpt lat="45.94963" lon="6.74754">
        <ele>1360</ele>
        <time>2022-01-23T09:58:23Z</time>
      </trkpt>
      <trkpt lat="45.94971" lon="6.74756">
        <ele>1359</ele>
        <time>2022-01-23T09:58:29Z</time>
      </trkpt>
      <trkpt lat="45.94981" lon="6.74748">
        <ele>1358</ele>
        <time>2022-01-23T09:58:38Z</time>
      </trkpt>
      <trkpt lat="45.94986" lon="6.74739">
        <ele>1358</ele>
        <time>2022-01-23T09:58:45Z</time>
      </trkpt>
      <trkpt lat="45.94996" lon="6.74731">
        <ele>1358</ele>
        <time>2022-01-23T09:58:51Z</time>
      </trkpt>
      <trkpt lat="45.95008" lon="6.74729">
        <ele>1358</ele>
        <time>2022-01-23T09:58:57Z</time>
      </trkpt>
      <trkpt lat="45.95021" lon="6.74734">
        <ele>1358</ele>
        <time>2022-01-23T09:59:02Z</time>
      </trkpt>
      <trkpt lat="45.9503" lon="6.74743">
        <ele>1359</ele>
        <time>2022-01-23T09:59:12Z</time>
      </trkpt>
      <trkpt lat="45.95037" lon="6.74751">
        <ele>1359</ele>
        <time>2022-01-23T09:59:42Z</time>
      </trkpt>
      <trkpt lat="45.95049" lon="6.74779">
        <ele>1357</ele>
        <time>2022-01-23T10:00:02Z</time>
      </trkpt>
      <trkpt lat="45.95056" lon="6.74794">
        <ele>1357</ele>
        <time>2022-01-23T10:00:11Z</time>
      </trkpt>
      <trkpt lat="45.95058" lon="6.7482">
        <ele>1355</ele>
        <time>2022-01-23T10:00:30Z</time>
      </trkpt>
      <trkpt lat="45.95059" lon="6.74832">
        <ele>1355</ele>
        <time>2022-01-23T10:00:35Z</time>
      </trkpt>
      <trkpt lat="45.95061" lon="6.74844">
        <ele>1355</ele>
        <time>2022-01-23T10:00:42Z</time>
      </trkpt>
      <trkpt lat="45.95064" lon="6.74857">
        <ele>1354</ele>
        <time>2022-01-23T10:00:49Z</time>
      </trkpt>
      <trkpt lat="45.95074" lon="6.74883">
        <ele>1352</ele>
        <time>2022-01-23T10:01:05Z</time>
      </trkpt>
      <trkpt lat="45.95076" lon="6.74894">
        <ele>1351</ele>
        <time>2022-01-23T10:01:11Z</time>
      </trkpt>
      <trkpt lat="45.95082" lon="6.74909">
        <ele>1351</ele>
        <time>2022-01-23T10:01:20Z</time>
      </trkpt>
      <trkpt lat="45.95082" lon="6.74921">
        <ele>1350</ele>
        <time>2022-01-23T10:01:27Z</time>
      </trkpt>
      <trkpt lat="45.95082" lon="6.74934">
        <ele>1350</ele>
        <time>2022-01-23T10:01:37Z</time>
      </trkpt>
      <trkpt lat="45.95083" lon="6.74946">
        <ele>1349</ele>
        <time>2022-01-23T10:01:45Z</time>
      </trkpt>
      <trkpt lat="45.95082" lon="6.7499">
        <ele>1346</ele>
        <time>2022-01-23T10:02:08Z</time>
      </trkpt>
      <trkpt lat="45.95088" lon="6.75007">
        <ele>1346</ele>
        <time>2022-01-23T10:02:20Z</time>
      </trkpt>
      <trkpt lat="45.95092" lon="6.75015">
        <ele>1346</ele>
        <time>2022-01-23T10:02:27Z</time>
      </trkpt>
      <trkpt lat="45.95096" lon="6.75025">
        <ele>1346</ele>
        <time>2022-01-23T10:02:34Z</time>
      </trkpt>
      <trkpt lat="45.95101" lon="6.75033">
        <ele>1347</ele>
        <time>2022-01-23T10:02:41Z</time>
      </trkpt>
      <trkpt lat="45.95106" lon="6.75043">
        <ele>1347</ele>
        <time>2022-01-23T10:02:49Z</time>
      </trkpt>
      <trkpt lat="45.9512" lon="6.75068">
        <ele>1347</ele>
        <time>2022-01-23T10:03:10Z</time>
      </trkpt>
      <trkpt lat="45.95136" lon="6.75086">
        <ele>1348</ele>
        <time>2022-01-23T10:03:32Z</time>
      </trkpt>
      <trkpt lat="45.95152" lon="6.75114">
        <ele>1347</ele>
        <time>2022-01-23T10:03:58Z</time>
      </trkpt>
      <trkpt lat="45.95158" lon="6.7512">
        <ele>1348</ele>
        <time>2022-01-23T10:04:07Z</time>
      </trkpt>
      <trkpt lat="45.95173" lon="6.75137">
        <ele>1350</ele>
        <time>2022-01-23T10:04:25Z</time>
      </trkpt>
      <trkpt lat="45.95197" lon="6.75152">
        <ele>1351</ele>
        <time>2022-01-23T10:04:52Z</time>
      </trkpt>
      <trkpt lat="45.95205" lon="6.75158">
        <ele>1352</ele>
        <time>2022-01-23T10:05:00Z</time>
      </trkpt>
      <trkpt lat="45.95213" lon="6.75168">
        <ele>1353</ele>
        <time>2022-01-23T10:05:07Z</time>
      </trkpt>
      <trkpt lat="45.95221" lon="6.75176">
        <ele>1353</ele>
        <time>2022-01-23T10:05:15Z</time>
      </trkpt>
      <trkpt lat="45.95231" lon="6.75185">
        <ele>1354</ele>
        <time>2022-01-23T10:05:28Z</time>
      </trkpt>
      <trkpt lat="45.95236" lon="6.75196">
        <ele>1354</ele>
        <time>2022-01-23T10:05:36Z</time>
      </trkpt>
      <trkpt lat="45.95245" lon="6.75206">
        <ele>1354</ele>
        <time>2022-01-23T10:05:45Z</time>
      </trkpt>
      <trkpt lat="45.95251" lon="6.75213">
        <ele>1354</ele>
        <time>2022-01-23T10:05:50Z</time>
      </trkpt>
      <trkpt lat="45.95268" lon="6.75251">
        <ele>1357</ele>
        <time>2022-01-23T10:06:24Z</time>
      </trkpt>
      <trkpt lat="45.95271" lon="6.75262">
        <ele>1358</ele>
        <time>2022-01-23T10:06:30Z</time>
      </trkpt>
      <trkpt lat="45.95274" lon="6.75272">
        <ele>1359</ele>
        <time>2022-01-23T10:06:39Z</time>
      </trkpt>
      <trkpt lat="45.95274" lon="6.75282">
        <ele>1360</ele>
        <time>2022-01-23T10:06:47Z</time>
      </trkpt>
      <trkpt lat="45.95269" lon="6.7531">
        <ele>1360</ele>
        <time>2022-01-23T10:07:06Z</time>
      </trkpt>
      <trkpt lat="45.95263" lon="6.75327">
        <ele>1360</ele>
        <time>2022-01-23T10:07:21Z</time>
      </trkpt>
      <trkpt lat="45.9525" lon="6.75342">
        <ele>1361</ele>
        <time>2022-01-23T10:07:37Z</time>
      </trkpt>
      <trkpt lat="45.95249" lon="6.75353">
        <ele>1361</ele>
        <time>2022-01-23T10:07:45Z</time>
      </trkpt>
      <trkpt lat="45.95252" lon="6.75364">
        <ele>1361</ele>
        <time>2022-01-23T10:07:55Z</time>
      </trkpt>
      <trkpt lat="45.95256" lon="6.75373">
        <ele>1360</ele>
        <time>2022-01-23T10:08:02Z</time>
      </trkpt>
      <trkpt lat="45.95255" lon="6.75387">
        <ele>1360</ele>
        <time>2022-01-23T10:08:10Z</time>
      </trkpt>
      <trkpt lat="45.9525" lon="6.75407">
        <ele>1361</ele>
        <time>2022-01-23T10:08:23Z</time>
      </trkpt>
      <trkpt lat="45.95246" lon="6.75423">
        <ele>1361</ele>
        <time>2022-01-23T10:08:32Z</time>
      </trkpt>
      <trkpt lat="45.95238" lon="6.75454">
        <ele>1363</ele>
        <time>2022-01-23T10:08:48Z</time>
      </trkpt>
      <trkpt lat="45.9524" lon="6.75476">
        <ele>1363</ele>
        <time>2022-01-23T10:09:06Z</time>
      </trkpt>
      <trkpt lat="45.95241" lon="6.75497">
        <ele>1363</ele>
        <time>2022-01-23T10:09:22Z</time>
      </trkpt>
      <trkpt lat="45.95241" lon="6.75507">
        <ele>1363</ele>
        <time>2022-01-23T10:09:29Z</time>
      </trkpt>
      <trkpt lat="45.95235" lon="6.75526">
        <ele>1363</ele>
        <time>2022-01-23T10:09:38Z</time>
      </trkpt>
      <trkpt lat="45.95223" lon="6.75551">
        <ele>1363</ele>
        <time>2022-01-23T10:09:55Z</time>
      </trkpt>
      <trkpt lat="45.95217" lon="6.75561">
        <ele>1363</ele>
        <time>2022-01-23T10:10:03Z</time>
      </trkpt>
      <trkpt lat="45.9521" lon="6.75571">
        <ele>1363</ele>
        <time>2022-01-23T10:10:12Z</time>
      </trkpt>
      <trkpt lat="45.95209" lon="6.7559">
        <ele>1363</ele>
        <time>2022-01-23T10:10:25Z</time>
      </trkpt>
      <trkpt lat="45.95205" lon="6.75602">
        <ele>1363</ele>
        <time>2022-01-23T10:10:29Z</time>
      </trkpt>
      <trkpt lat="45.95203" lon="6.75613">
        <ele>1363</ele>
        <time>2022-01-23T10:10:37Z</time>
      </trkpt>
      <trkpt lat="45.95209" lon="6.75638">
        <ele>1362</ele>
        <time>2022-01-23T10:10:54Z</time>
      </trkpt>
      <trkpt lat="45.95216" lon="6.75668">
        <ele>1362</ele>
        <time>2022-01-23T10:11:08Z</time>
      </trkpt>
      <trkpt lat="45.95215" lon="6.757">
        <ele>1362</ele>
        <time>2022-01-23T10:11:22Z</time>
      </trkpt>
      <trkpt lat="45.95213" lon="6.7571">
        <ele>1361</ele>
        <time>2022-01-23T10:11:31Z</time>
      </trkpt>
      <trkpt lat="45.95199" lon="6.75729">
        <ele>1360</ele>
        <time>2022-01-23T10:11:44Z</time>
      </trkpt>
      <trkpt lat="45.95194" lon="6.75738">
        <ele>1361</ele>
        <time>2022-01-23T10:11:57Z</time>
      </trkpt>
      <trkpt lat="45.95192" lon="6.7575">
        <ele>1361</ele>
        <time>2022-01-23T10:12:03Z</time>
      </trkpt>
      <trkpt lat="45.95189" lon="6.7576">
        <ele>1361</ele>
        <time>2022-01-23T10:12:17Z</time>
      </trkpt>
      <trkpt lat="45.95188" lon="6.75776">
        <ele>1362</ele>
        <time>2022-01-23T10:12:34Z</time>
      </trkpt>
      <trkpt lat="45.95185" lon="6.75789">
        <ele>1365</ele>
        <time>2022-01-23T10:13:14Z</time>
      </trkpt>
      <trkpt lat="45.95174" lon="6.75796">
        <ele>1367</ele>
        <time>2022-01-23T10:13:26Z</time>
      </trkpt>
      <trkpt lat="45.95166" lon="6.75799">
        <ele>1370</ele>
        <time>2022-01-23T10:13:39Z</time>
      </trkpt>
      <trkpt lat="45.95159" lon="6.75801">
        <ele>1371</ele>
        <time>2022-01-23T10:13:46Z</time>
      </trkpt>
      <trkpt lat="45.95153" lon="6.75808">
        <ele>1374</ele>
        <time>2022-01-23T10:14:02Z</time>
      </trkpt>
      <trkpt lat="45.95149" lon="6.75819">
        <ele>1375</ele>
        <time>2022-01-23T10:14:15Z</time>
      </trkpt>
      <trkpt lat="45.95145" lon="6.75831">
        <ele>1376</ele>
        <time>2022-01-23T10:14:33Z</time>
      </trkpt>
      <trkpt lat="45.95134" lon="6.7585">
        <ele>1376</ele>
        <time>2022-01-23T10:14:54Z</time>
      </trkpt>
      <trkpt lat="45.95121" lon="6.75861">
        <ele>1377</ele>
        <time>2022-01-23T10:15:15Z</time>
      </trkpt>
      <trkpt lat="45.95113" lon="6.75878">
        <ele>1381</ele>
        <time>2022-01-23T10:15:38Z</time>
      </trkpt>
      <trkpt lat="45.95108" lon="6.75887">
        <ele>1382</ele>
        <time>2022-01-23T10:15:46Z</time>
      </trkpt>
      <trkpt lat="45.95089" lon="6.75906">
        <ele>1384</ele>
        <time>2022-01-23T10:16:15Z</time>
      </trkpt>
      <trkpt lat="45.95077" lon="6.75913">
        <ele>1386</ele>
        <time>2022-01-23T10:16:35Z</time>
      </trkpt>
      <trkpt lat="45.95073" lon="6.75922">
        <ele>1387</ele>
        <time>2022-01-23T10:16:45Z</time>
      </trkpt>
      <trkpt lat="45.95063" lon="6.7594">
        <ele>1389</ele>
        <time>2022-01-23T10:16:59Z</time>
      </trkpt>
      <trkpt lat="45.95061" lon="6.75976">
        <ele>1392</ele>
        <time>2022-01-23T10:17:29Z</time>
      </trkpt>
      <trkpt lat="45.95061" lon="6.75998">
        <ele>1393</ele>
        <time>2022-01-23T10:17:55Z</time>
      </trkpt>
      <trkpt lat="45.95061" lon="6.7601">
        <ele>1393</ele>
        <time>2022-01-23T10:18:06Z</time>
      </trkpt>
      <trkpt lat="45.95054" lon="6.76028">
        <ele>1393</ele>
        <time>2022-01-23T10:18:23Z</time>
      </trkpt>
      <trkpt lat="45.95045" lon="6.76036">
        <ele>1394</ele>
        <time>2022-01-23T10:18:32Z</time>
      </trkpt>
      <trkpt lat="45.95037" lon="6.76045">
        <ele>1395</ele>
        <time>2022-01-23T10:18:45Z</time>
      </trkpt>
      <trkpt lat="45.95035" lon="6.76057">
        <ele>1396</ele>
        <time>2022-01-23T10:18:53Z</time>
      </trkpt>
      <trkpt lat="45.95035" lon="6.76068">
        <ele>1397</ele>
        <time>2022-01-23T10:19:04Z</time>
      </trkpt>
      <trkpt lat="45.95027" lon="6.76088">
        <ele>1398</ele>
        <time>2022-01-23T10:19:22Z</time>
      </trkpt>
      <trkpt lat="45.95025" lon="6.76099">
        <ele>1399</ele>
        <time>2022-01-23T10:19:30Z</time>
      </trkpt>
      <trkpt lat="45.95026" lon="6.7611">
        <ele>1399</ele>
        <time>2022-01-23T10:19:38Z</time>
      </trkpt>
      <trkpt lat="45.95028" lon="6.7612">
        <ele>1399</ele>
        <time>2022-01-23T10:19:47Z</time>
      </trkpt>
      <trkpt lat="45.95037" lon="6.76127">
        <ele>1400</ele>
        <time>2022-01-23T10:20:00Z</time>
      </trkpt>
      <trkpt lat="45.9504" lon="6.76138">
        <ele>1400</ele>
        <time>2022-01-23T10:20:09Z</time>
      </trkpt>
      <trkpt lat="45.95043" lon="6.76149">
        <ele>1401</ele>
        <time>2022-01-23T10:20:19Z</time>
      </trkpt>
      <trkpt lat="45.95049" lon="6.76158">
        <ele>1402</ele>
        <time>2022-01-23T10:20:31Z</time>
      </trkpt>
      <trkpt lat="45.95053" lon="6.76167">
        <ele>1403</ele>
        <time>2022-01-23T10:20:39Z</time>
      </trkpt>
      <trkpt lat="45.9506" lon="6.76178">
        <ele>1403</ele>
        <time>2022-01-23T10:20:54Z</time>
      </trkpt>
      <trkpt lat="45.95064" lon="6.76187">
        <ele>1404</ele>
        <time>2022-01-23T10:21:03Z</time>
      </trkpt>
      <trkpt lat="45.95068" lon="6.76202">
        <ele>1405</ele>
        <time>2022-01-23T10:21:17Z</time>
      </trkpt>
      <trkpt lat="45.95075" lon="6.7621">
        <ele>1407</ele>
        <time>2022-01-23T10:21:29Z</time>
      </trkpt>
      <trkpt lat="45.95082" lon="6.76229">
        <ele>1408</ele>
        <time>2022-01-23T10:21:48Z</time>
      </trkpt>
      <trkpt lat="45.95087" lon="6.76245">
        <ele>1409</ele>
        <time>2022-01-23T10:22:02Z</time>
      </trkpt>
      <trkpt lat="45.95087" lon="6.76273">
        <ele>1412</ele>
        <time>2022-01-23T10:22:24Z</time>
      </trkpt>
      <trkpt lat="45.95099" lon="6.76312">
        <ele>1413</ele>
        <time>2022-01-23T10:23:02Z</time>
      </trkpt>
      <trkpt lat="45.95102" lon="6.76322">
        <ele>1413</ele>
        <time>2022-01-23T10:23:12Z</time>
      </trkpt>
      <trkpt lat="45.95105" lon="6.76334">
        <ele>1413</ele>
        <time>2022-01-23T10:23:22Z</time>
      </trkpt>
      <trkpt lat="45.9511" lon="6.76346">
        <ele>1413</ele>
        <time>2022-01-23T10:23:34Z</time>
      </trkpt>
      <trkpt lat="45.95115" lon="6.76355">
        <ele>1413</ele>
        <time>2022-01-23T10:23:44Z</time>
      </trkpt>
      <trkpt lat="45.95123" lon="6.76373">
        <ele>1414</ele>
        <time>2022-01-23T10:24:04Z</time>
      </trkpt>
      <trkpt lat="45.9513" lon="6.76394">
        <ele>1416</ele>
        <time>2022-01-23T10:24:22Z</time>
      </trkpt>
      <trkpt lat="45.95149" lon="6.7643">
        <ele>1416</ele>
        <time>2022-01-23T10:25:00Z</time>
      </trkpt>
      <trkpt lat="45.95156" lon="6.76451">
        <ele>1417</ele>
        <time>2022-01-23T10:25:15Z</time>
      </trkpt>
      <trkpt lat="45.95158" lon="6.76462">
        <ele>1417</ele>
        <time>2022-01-23T10:25:23Z</time>
      </trkpt>
      <trkpt lat="45.95162" lon="6.76473">
        <ele>1418</ele>
        <time>2022-01-23T10:25:30Z</time>
      </trkpt>
      <trkpt lat="45.95165" lon="6.76483">
        <ele>1418</ele>
        <time>2022-01-23T10:25:37Z</time>
      </trkpt>
      <trkpt lat="45.95174" lon="6.76494">
        <ele>1419</ele>
        <time>2022-01-23T10:25:45Z</time>
      </trkpt>
      <trkpt lat="45.95179" lon="6.76502">
        <ele>1419</ele>
        <time>2022-01-23T10:25:52Z</time>
      </trkpt>
      <trkpt lat="45.95185" lon="6.76509">
        <ele>1420</ele>
        <time>2022-01-23T10:25:57Z</time>
      </trkpt>
      <trkpt lat="45.9519" lon="6.76519">
        <ele>1420</ele>
        <time>2022-01-23T10:26:04Z</time>
      </trkpt>
      <trkpt lat="45.95207" lon="6.76555">
        <ele>1420</ele>
        <time>2022-01-23T10:26:28Z</time>
      </trkpt>
      <trkpt lat="45.95209" lon="6.76566">
        <ele>1420</ele>
        <time>2022-01-23T10:26:32Z</time>
      </trkpt>
      <trkpt lat="45.95211" lon="6.76577">
        <ele>1420</ele>
        <time>2022-01-23T10:26:36Z</time>
      </trkpt>
      <trkpt lat="45.95242" lon="6.7662">
        <ele>1418</ele>
        <time>2022-01-23T10:27:03Z</time>
      </trkpt>
      <trkpt lat="45.95245" lon="6.76633">
        <ele>1418</ele>
        <time>2022-01-23T10:27:10Z</time>
      </trkpt>
      <trkpt lat="45.95249" lon="6.76643">
        <ele>1418</ele>
        <time>2022-01-23T10:27:15Z</time>
      </trkpt>
      <trkpt lat="45.95255" lon="6.76651">
        <ele>1417</ele>
        <time>2022-01-23T10:27:23Z</time>
      </trkpt>
      <trkpt lat="45.95261" lon="6.76664">
        <ele>1416</ele>
        <time>2022-01-23T10:27:31Z</time>
      </trkpt>
      <trkpt lat="45.95281" lon="6.76702">
        <ele>1417</ele>
        <time>2022-01-23T10:27:53Z</time>
      </trkpt>
      <trkpt lat="45.95288" lon="6.76706">
        <ele>1417</ele>
        <time>2022-01-23T10:28:02Z</time>
      </trkpt>
      <trkpt lat="45.95303" lon="6.76714">
        <ele>1417</ele>
        <time>2022-01-23T10:28:14Z</time>
      </trkpt>
      <trkpt lat="45.95309" lon="6.76723">
        <ele>1417</ele>
        <time>2022-01-23T10:28:20Z</time>
      </trkpt>
      <trkpt lat="45.95314" lon="6.76746">
        <ele>1416</ele>
        <time>2022-01-23T10:28:33Z</time>
      </trkpt>
      <trkpt lat="45.95319" lon="6.7676">
        <ele>1416</ele>
        <time>2022-01-23T10:28:41Z</time>
      </trkpt>
      <trkpt lat="45.95323" lon="6.76769">
        <ele>1415</ele>
        <time>2022-01-23T10:28:47Z</time>
      </trkpt>
      <trkpt lat="45.95328" lon="6.76778">
        <ele>1415</ele>
        <time>2022-01-23T10:28:55Z</time>
      </trkpt>
      <trkpt lat="45.95335" lon="6.76783">
        <ele>1414</ele>
        <time>2022-01-23T10:29:05Z</time>
      </trkpt>
      <trkpt lat="45.95339" lon="6.76794">
        <ele>1414</ele>
        <time>2022-01-23T10:29:10Z</time>
      </trkpt>
      <trkpt lat="45.95345" lon="6.76802">
        <ele>1413</ele>
        <time>2022-01-23T10:29:21Z</time>
      </trkpt>
      <trkpt lat="45.95344" lon="6.76813">
        <ele>1413</ele>
        <time>2022-01-23T10:29:27Z</time>
      </trkpt>
      <trkpt lat="45.95345" lon="6.76824">
        <ele>1413</ele>
        <time>2022-01-23T10:29:33Z</time>
      </trkpt>
      <trkpt lat="45.95352" lon="6.76831">
        <ele>1414</ele>
        <time>2022-01-23T10:29:46Z</time>
      </trkpt>
      <trkpt lat="45.95355" lon="6.76852">
        <ele>1415</ele>
        <time>2022-01-23T10:30:07Z</time>
      </trkpt>
      <trkpt lat="45.95359" lon="6.76862">
        <ele>1415</ele>
        <time>2022-01-23T10:30:16Z</time>
      </trkpt>
      <trkpt lat="45.95362" lon="6.76873">
        <ele>1416</ele>
        <time>2022-01-23T10:30:25Z</time>
      </trkpt>
      <trkpt lat="45.95368" lon="6.7688">
        <ele>1416</ele>
        <time>2022-01-23T10:30:33Z</time>
      </trkpt>
      <trkpt lat="45.9537" lon="6.76897">
        <ele>1416</ele>
        <time>2022-01-23T10:30:45Z</time>
      </trkpt>
      <trkpt lat="45.95369" lon="6.76911">
        <ele>1416</ele>
        <time>2022-01-23T10:30:55Z</time>
      </trkpt>
      <trkpt lat="45.95368" lon="6.76921">
        <ele>1418</ele>
        <time>2022-01-23T10:31:05Z</time>
      </trkpt>
      <trkpt lat="45.95376" lon="6.76951">
        <ele>1421</ele>
        <time>2022-01-23T10:31:31Z</time>
      </trkpt>
      <trkpt lat="45.95385" lon="6.76961">
        <ele>1422</ele>
        <time>2022-01-23T10:31:41Z</time>
      </trkpt>
      <trkpt lat="45.95392" lon="6.76974">
        <ele>1423</ele>
        <time>2022-01-23T10:31:53Z</time>
      </trkpt>
      <trkpt lat="45.95391" lon="6.76985">
        <ele>1424</ele>
        <time>2022-01-23T10:32:00Z</time>
      </trkpt>
      <trkpt lat="45.95391" lon="6.76996">
        <ele>1424</ele>
        <time>2022-01-23T10:32:09Z</time>
      </trkpt>
      <trkpt lat="45.95393" lon="6.77008">
        <ele>1423</ele>
        <time>2022-01-23T10:32:21Z</time>
      </trkpt>
      <trkpt lat="45.95408" lon="6.77014">
        <ele>1427</ele>
        <time>2022-01-23T10:32:58Z</time>
      </trkpt>
      <trkpt lat="45.95413" lon="6.77021">
        <ele>1430</ele>
        <time>2022-01-23T10:33:11Z</time>
      </trkpt>
      <trkpt lat="45.95421" lon="6.77023">
        <ele>1431</ele>
        <time>2022-01-23T10:33:19Z</time>
      </trkpt>
      <trkpt lat="45.95423" lon="6.77023">
        <ele>1436</ele>
        <time>2022-01-23T10:37:16Z</time>
      </trkpt>
      <trkpt lat="45.95433" lon="6.77022">
        <ele>1437</ele>
        <time>2022-01-23T10:37:43Z</time>
      </trkpt>
      <trkpt lat="45.95444" lon="6.77023">
        <ele>1443</ele>
        <time>2022-01-23T10:39:04Z</time>
      </trkpt>
      <trkpt lat="45.95453" lon="6.77023">
        <ele>1443</ele>
        <time>2022-01-23T10:39:13Z</time>
      </trkpt>
      <trkpt lat="45.95464" lon="6.77023">
        <ele>1443</ele>
        <time>2022-01-23T10:39:23Z</time>
      </trkpt>
      <trkpt lat="45.95475" lon="6.77029">
        <ele>1441</ele>
        <time>2022-01-23T10:39:35Z</time>
      </trkpt>
      <trkpt lat="45.95482" lon="6.77032">
        <ele>1440</ele>
        <time>2022-01-23T10:39:45Z</time>
      </trkpt>
      <trkpt lat="45.95496" lon="6.77045">
        <ele>1440</ele>
        <time>2022-01-23T10:39:57Z</time>
      </trkpt>
      <trkpt lat="45.95507" lon="6.77049">
        <ele>1441</ele>
        <time>2022-01-23T10:40:15Z</time>
      </trkpt>
      <trkpt lat="45.95518" lon="6.77052">
        <ele>1443</ele>
        <time>2022-01-23T10:40:29Z</time>
      </trkpt>
      <trkpt lat="45.95528" lon="6.77054">
        <ele>1445</ele>
        <time>2022-01-23T10:40:40Z</time>
      </trkpt>
      <trkpt lat="45.95537" lon="6.77065">
        <ele>1445</ele>
        <time>2022-01-23T10:40:52Z</time>
      </trkpt>
      <trkpt lat="45.95541" lon="6.7708">
        <ele>1447</ele>
        <time>2022-01-23T10:41:04Z</time>
      </trkpt>
      <trkpt lat="45.9555" lon="6.77108">
        <ele>1450</ele>
        <time>2022-01-23T10:41:29Z</time>
      </trkpt>
      <trkpt lat="45.95554" lon="6.77121">
        <ele>1454</ele>
        <time>2022-01-23T10:41:44Z</time>
      </trkpt>
      <trkpt lat="45.95561" lon="6.77125">
        <ele>1456</ele>
        <time>2022-01-23T10:41:56Z</time>
      </trkpt>
      <trkpt lat="45.95572" lon="6.77137">
        <ele>1459</ele>
        <time>2022-01-23T10:42:13Z</time>
      </trkpt>
      <trkpt lat="45.95582" lon="6.77144">
        <ele>1460</ele>
        <time>2022-01-23T10:42:22Z</time>
      </trkpt>
      <trkpt lat="45.95586" lon="6.77155">
        <ele>1460</ele>
        <time>2022-01-23T10:42:30Z</time>
      </trkpt>
      <trkpt lat="45.95597" lon="6.7716">
        <ele>1461</ele>
        <time>2022-01-23T10:42:44Z</time>
      </trkpt>
      <trkpt lat="45.95607" lon="6.77171">
        <ele>1462</ele>
        <time>2022-01-23T10:43:01Z</time>
      </trkpt>
      <trkpt lat="45.9561" lon="6.77181">
        <ele>1463</ele>
        <time>2022-01-23T10:43:09Z</time>
      </trkpt>
      <trkpt lat="45.95612" lon="6.77192">
        <ele>1462</ele>
        <time>2022-01-23T10:43:21Z</time>
      </trkpt>
      <trkpt lat="45.95613" lon="6.77208">
        <ele>1462</ele>
        <time>2022-01-23T10:43:28Z</time>
      </trkpt>
      <trkpt lat="45.95617" lon="6.77227">
        <ele>1461</ele>
        <time>2022-01-23T10:43:35Z</time>
      </trkpt>
      <trkpt lat="45.95621" lon="6.77237">
        <ele>1465</ele>
        <time>2022-01-23T10:43:53Z</time>
      </trkpt>
      <trkpt lat="45.9562" lon="6.7725">
        <ele>1467</ele>
        <time>2022-01-23T10:44:02Z</time>
      </trkpt>
      <trkpt lat="45.95618" lon="6.7726">
        <ele>1470</ele>
        <time>2022-01-23T10:44:12Z</time>
      </trkpt>
      <trkpt lat="45.9562" lon="6.7727">
        <ele>1470</ele>
        <time>2022-01-23T10:44:22Z</time>
      </trkpt>
      <trkpt lat="45.95624" lon="6.77284">
        <ele>1471</ele>
        <time>2022-01-23T10:44:30Z</time>
      </trkpt>
      <trkpt lat="45.95634" lon="6.77305">
        <ele>1472</ele>
        <time>2022-01-23T10:44:53Z</time>
      </trkpt>
      <trkpt lat="45.95636" lon="6.77316">
        <ele>1472</ele>
        <time>2022-01-23T10:45:06Z</time>
      </trkpt>
      <trkpt lat="45.95639" lon="6.77327">
        <ele>1473</ele>
        <time>2022-01-23T10:45:19Z</time>
      </trkpt>
      <trkpt lat="45.9564" lon="6.77344">
        <ele>1473</ele>
        <time>2022-01-23T10:45:29Z</time>
      </trkpt>
      <trkpt lat="45.95639" lon="6.7738">
        <ele>1479</ele>
        <time>2022-01-23T10:46:00Z</time>
      </trkpt>
      <trkpt lat="45.95641" lon="6.77392">
        <ele>1479</ele>
        <time>2022-01-23T10:46:09Z</time>
      </trkpt>
      <trkpt lat="45.95648" lon="6.774">
        <ele>1482</ele>
        <time>2022-01-23T10:46:27Z</time>
      </trkpt>
      <trkpt lat="45.95654" lon="6.77407">
        <ele>1483</ele>
        <time>2022-01-23T10:46:37Z</time>
      </trkpt>
      <trkpt lat="45.95661" lon="6.7741">
        <ele>1485</ele>
        <time>2022-01-23T10:46:48Z</time>
      </trkpt>
      <trkpt lat="45.95667" lon="6.77418">
        <ele>1488</ele>
        <time>2022-01-23T10:46:56Z</time>
      </trkpt>
      <trkpt lat="45.95673" lon="6.77425">
        <ele>1490</ele>
        <time>2022-01-23T10:47:04Z</time>
      </trkpt>
      <trkpt lat="45.95688" lon="6.77432">
        <ele>1492</ele>
        <time>2022-01-23T10:47:22Z</time>
      </trkpt>
      <trkpt lat="45.95697" lon="6.77433">
        <ele>1492</ele>
        <time>2022-01-23T10:47:31Z</time>
      </trkpt>
      <trkpt lat="45.95705" lon="6.7743">
        <ele>1493</ele>
        <time>2022-01-23T10:47:49Z</time>
      </trkpt>
      <trkpt lat="45.95716" lon="6.77429">
        <ele>1495</ele>
        <time>2022-01-23T10:48:07Z</time>
      </trkpt>
      <trkpt lat="45.9573" lon="6.77433">
        <ele>1501</ele>
        <time>2022-01-23T10:48:23Z</time>
      </trkpt>
      <trkpt lat="45.95741" lon="6.77446">
        <ele>1504</ele>
        <time>2022-01-23T10:48:38Z</time>
      </trkpt>
      <trkpt lat="45.95753" lon="6.77455">
        <ele>1507</ele>
        <time>2022-01-23T10:48:49Z</time>
      </trkpt>
      <trkpt lat="45.95757" lon="6.77466">
        <ele>1509</ele>
        <time>2022-01-23T10:49:00Z</time>
      </trkpt>
      <trkpt lat="45.95764" lon="6.77472">
        <ele>1509</ele>
        <time>2022-01-23T10:49:08Z</time>
      </trkpt>
      <trkpt lat="45.9577" lon="6.77477">
        <ele>1509</ele>
        <time>2022-01-23T10:49:16Z</time>
      </trkpt>
      <trkpt lat="45.95775" lon="6.77486">
        <ele>1508</ele>
        <time>2022-01-23T10:49:26Z</time>
      </trkpt>
      <trkpt lat="45.9579" lon="6.77503">
        <ele>1508</ele>
        <time>2022-01-23T10:49:45Z</time>
      </trkpt>
      <trkpt lat="45.95795" lon="6.77518">
        <ele>1508</ele>
        <time>2022-01-23T10:49:54Z</time>
      </trkpt>
      <trkpt lat="45.95797" lon="6.77533">
        <ele>1508</ele>
        <time>2022-01-23T10:50:07Z</time>
      </trkpt>
      <trkpt lat="45.95792" lon="6.77564">
        <ele>1511</ele>
        <time>2022-01-23T10:50:27Z</time>
      </trkpt>
      <trkpt lat="45.95784" lon="6.77586">
        <ele>1513</ele>
        <time>2022-01-23T10:50:45Z</time>
      </trkpt>
      <trkpt lat="45.95781" lon="6.77597">
        <ele>1514</ele>
        <time>2022-01-23T10:50:55Z</time>
      </trkpt>
      <trkpt lat="45.9578" lon="6.77612">
        <ele>1516</ele>
        <time>2022-01-23T10:51:06Z</time>
      </trkpt>
      <trkpt lat="45.95781" lon="6.77625">
        <ele>1518</ele>
        <time>2022-01-23T10:51:23Z</time>
      </trkpt>
      <trkpt lat="45.95792" lon="6.77632">
        <ele>1520</ele>
        <time>2022-01-23T10:51:40Z</time>
      </trkpt>
      <trkpt lat="45.958" lon="6.77635">
        <ele>1524</ele>
        <time>2022-01-23T10:51:53Z</time>
      </trkpt>
      <trkpt lat="45.95806" lon="6.77652">
        <ele>1525</ele>
        <time>2022-01-23T10:52:04Z</time>
      </trkpt>
      <trkpt lat="45.95802" lon="6.77674">
        <ele>1525</ele>
        <time>2022-01-23T10:52:15Z</time>
      </trkpt>
      <trkpt lat="45.95801" lon="6.77685">
        <ele>1526</ele>
        <time>2022-01-23T10:52:24Z</time>
      </trkpt>
      <trkpt lat="45.95806" lon="6.77695">
        <ele>1526</ele>
        <time>2022-01-23T10:52:35Z</time>
      </trkpt>
      <trkpt lat="45.95813" lon="6.77697">
        <ele>1527</ele>
        <time>2022-01-23T10:52:46Z</time>
      </trkpt>
      <trkpt lat="45.95822" lon="6.77696">
        <ele>1528</ele>
        <time>2022-01-23T10:53:05Z</time>
      </trkpt>
      <trkpt lat="45.95836" lon="6.77683">
        <ele>1535</ele>
        <time>2022-01-23T10:53:37Z</time>
      </trkpt>
      <trkpt lat="45.95844" lon="6.7768">
        <ele>1538</ele>
        <time>2022-01-23T10:53:52Z</time>
      </trkpt>
      <trkpt lat="45.95852" lon="6.77678">
        <ele>1539</ele>
        <time>2022-01-23T10:53:58Z</time>
      </trkpt>
      <trkpt lat="45.95858" lon="6.77685">
        <ele>1542</ele>
        <time>2022-01-23T10:54:15Z</time>
      </trkpt>
      <trkpt lat="45.95857" lon="6.77714">
        <ele>1542</ele>
        <time>2022-01-23T10:54:51Z</time>
      </trkpt>
      <trkpt lat="45.95854" lon="6.77726">
        <ele>1542</ele>
        <time>2022-01-23T10:55:03Z</time>
      </trkpt>
      <trkpt lat="45.95851" lon="6.77735">
        <ele>1544</ele>
        <time>2022-01-23T10:55:17Z</time>
      </trkpt>
      <trkpt lat="45.95854" lon="6.77748">
        <ele>1546</ele>
        <time>2022-01-23T10:55:29Z</time>
      </trkpt>
      <trkpt lat="45.95856" lon="6.77758">
        <ele>1548</ele>
        <time>2022-01-23T10:55:39Z</time>
      </trkpt>
      <trkpt lat="45.9587" lon="6.77774">
        <ele>1550</ele>
        <time>2022-01-23T10:56:03Z</time>
      </trkpt>
      <trkpt lat="45.95877" lon="6.77789">
        <ele>1551</ele>
        <time>2022-01-23T10:56:14Z</time>
      </trkpt>
      <trkpt lat="45.95887" lon="6.77794">
        <ele>1553</ele>
        <time>2022-01-23T10:56:26Z</time>
      </trkpt>
      <trkpt lat="45.95898" lon="6.7781">
        <ele>1556</ele>
        <time>2022-01-23T10:56:49Z</time>
      </trkpt>
      <trkpt lat="45.95893" lon="6.77832">
        <ele>1558</ele>
        <time>2022-01-23T10:57:13Z</time>
      </trkpt>
      <trkpt lat="45.95888" lon="6.77839">
        <ele>1558</ele>
        <time>2022-01-23T10:57:22Z</time>
      </trkpt>
      <trkpt lat="45.95886" lon="6.77849">
        <ele>1558</ele>
        <time>2022-01-23T10:57:33Z</time>
      </trkpt>
      <trkpt lat="45.95887" lon="6.77859">
        <ele>1559</ele>
        <time>2022-01-23T10:57:46Z</time>
      </trkpt>
      <trkpt lat="45.95894" lon="6.77858">
        <ele>1561</ele>
        <time>2022-01-23T10:58:19Z</time>
      </trkpt>
      <trkpt lat="45.95901" lon="6.77861">
        <ele>1563</ele>
        <time>2022-01-23T10:58:28Z</time>
      </trkpt>
      <trkpt lat="45.95909" lon="6.77864">
        <ele>1565</ele>
        <time>2022-01-23T10:58:38Z</time>
      </trkpt>
      <trkpt lat="45.95916" lon="6.77866">
        <ele>1566</ele>
        <time>2022-01-23T10:58:50Z</time>
      </trkpt>
      <trkpt lat="45.95927" lon="6.77869">
        <ele>1567</ele>
        <time>2022-01-23T10:59:02Z</time>
      </trkpt>
      <trkpt lat="45.95934" lon="6.77871">
        <ele>1567</ele>
        <time>2022-01-23T10:59:12Z</time>
      </trkpt>
      <trkpt lat="45.95941" lon="6.77876">
        <ele>1569</ele>
        <time>2022-01-23T10:59:22Z</time>
      </trkpt>
      <trkpt lat="45.9595" lon="6.77882">
        <ele>1573</ele>
        <time>2022-01-23T10:59:33Z</time>
      </trkpt>
      <trkpt lat="45.95957" lon="6.77886">
        <ele>1575</ele>
        <time>2022-01-23T10:59:40Z</time>
      </trkpt>
      <trkpt lat="45.95964" lon="6.7789">
        <ele>1577</ele>
        <time>2022-01-23T10:59:53Z</time>
      </trkpt>
      <trkpt lat="45.95974" lon="6.77876">
        <ele>1579</ele>
        <time>2022-01-23T11:00:12Z</time>
      </trkpt>
      <trkpt lat="45.9599" lon="6.7786">
        <ele>1580</ele>
        <time>2022-01-23T11:00:49Z</time>
      </trkpt>
      <trkpt lat="45.96009" lon="6.77856">
        <ele>1582</ele>
        <time>2022-01-23T11:01:17Z</time>
      </trkpt>
      <trkpt lat="45.96016" lon="6.77855">
        <ele>1583</ele>
        <time>2022-01-23T11:01:30Z</time>
      </trkpt>
      <trkpt lat="45.96023" lon="6.77859">
        <ele>1583</ele>
        <time>2022-01-23T11:01:46Z</time>
      </trkpt>
      <trkpt lat="45.96032" lon="6.7786">
        <ele>1586</ele>
        <time>2022-01-23T11:02:01Z</time>
      </trkpt>
      <trkpt lat="45.96039" lon="6.7786">
        <ele>1593</ele>
        <time>2022-01-23T11:02:21Z</time>
      </trkpt>
      <trkpt lat="45.96039" lon="6.77852">
        <ele>1593</ele>
        <time>2022-01-23T11:02:28Z</time>
      </trkpt>
      <trkpt lat="45.96038" lon="6.7783">
        <ele>1597</ele>
        <time>2022-01-23T11:03:08Z</time>
      </trkpt>
      <trkpt lat="45.96041" lon="6.77812">
        <ele>1598</ele>
        <time>2022-01-23T11:03:26Z</time>
      </trkpt>
      <trkpt lat="45.96043" lon="6.7778">
        <ele>1600</ele>
        <time>2022-01-23T11:04:03Z</time>
      </trkpt>
      <trkpt lat="45.96043" lon="6.77769">
        <ele>1600</ele>
        <time>2022-01-23T11:04:17Z</time>
      </trkpt>
      <trkpt lat="45.96045" lon="6.77761">
        <ele>1604</ele>
        <time>2022-01-23T11:05:12Z</time>
      </trkpt>
      <trkpt lat="45.9605" lon="6.77752">
        <ele>1604</ele>
        <time>2022-01-23T11:05:25Z</time>
      </trkpt>
      <trkpt lat="45.96056" lon="6.77737">
        <ele>1607</ele>
        <time>2022-01-23T11:05:36Z</time>
      </trkpt>
      <trkpt lat="45.96064" lon="6.77722">
        <ele>1609</ele>
        <time>2022-01-23T11:05:47Z</time>
      </trkpt>
      <trkpt lat="45.96072" lon="6.7772">
        <ele>1612</ele>
        <time>2022-01-23T11:06:03Z</time>
      </trkpt>
      <trkpt lat="45.96079" lon="6.77719">
        <ele>1613</ele>
        <time>2022-01-23T11:06:21Z</time>
      </trkpt>
      <trkpt lat="45.96098" lon="6.77712">
        <ele>1617</ele>
        <time>2022-01-23T11:06:46Z</time>
      </trkpt>
      <trkpt lat="45.96107" lon="6.77707">
        <ele>1617</ele>
        <time>2022-01-23T11:06:55Z</time>
      </trkpt>
      <trkpt lat="45.96115" lon="6.77703">
        <ele>1619</ele>
        <time>2022-01-23T11:07:08Z</time>
      </trkpt>
      <trkpt lat="45.96125" lon="6.77698">
        <ele>1620</ele>
        <time>2022-01-23T11:07:26Z</time>
      </trkpt>
      <trkpt lat="45.96131" lon="6.77694">
        <ele>1623</ele>
        <time>2022-01-23T11:07:35Z</time>
      </trkpt>
      <trkpt lat="45.96136" lon="6.77691">
        <ele>1625</ele>
        <time>2022-01-23T11:07:42Z</time>
      </trkpt>
      <trkpt lat="45.96141" lon="6.77688">
        <ele>1628</ele>
        <time>2022-01-23T11:07:56Z</time>
      </trkpt>
      <trkpt lat="45.96148" lon="6.77684">
        <ele>1629</ele>
        <time>2022-01-23T11:08:11Z</time>
      </trkpt>
      <trkpt lat="45.96154" lon="6.77677">
        <ele>1634</ele>
        <time>2022-01-23T11:08:22Z</time>
      </trkpt>
      <trkpt lat="45.96161" lon="6.77673">
        <ele>1636</ele>
        <time>2022-01-23T11:08:35Z</time>
      </trkpt>
      <trkpt lat="45.9617" lon="6.77665">
        <ele>1642</ele>
        <time>2022-01-23T11:08:56Z</time>
      </trkpt>
      <trkpt lat="45.96173" lon="6.77653">
        <ele>1643</ele>
        <time>2022-01-23T11:09:05Z</time>
      </trkpt>
      <trkpt lat="45.96171" lon="6.77643">
        <ele>1643</ele>
        <time>2022-01-23T11:09:12Z</time>
      </trkpt>
      <trkpt lat="45.96168" lon="6.77625">
        <ele>1642</ele>
        <time>2022-01-23T11:09:38Z</time>
      </trkpt>
      <trkpt lat="45.96167" lon="6.77618">
        <ele>1642</ele>
        <time>2022-01-23T11:09:45Z</time>
      </trkpt>
      <trkpt lat="45.96165" lon="6.77607">
        <ele>1641</ele>
        <time>2022-01-23T11:09:57Z</time>
      </trkpt>
      <trkpt lat="45.96173" lon="6.77588">
        <ele>1637</ele>
        <time>2022-01-23T11:10:27Z</time>
      </trkpt>
      <trkpt lat="45.96181" lon="6.77582">
        <ele>1639</ele>
        <time>2022-01-23T11:10:41Z</time>
      </trkpt>
      <trkpt lat="45.96195" lon="6.77574">
        <ele>1642</ele>
        <time>2022-01-23T11:11:15Z</time>
      </trkpt>
      <trkpt lat="45.96205" lon="6.77571">
        <ele>1644</ele>
        <time>2022-01-23T11:11:33Z</time>
      </trkpt>
      <trkpt lat="45.96214" lon="6.77569">
        <ele>1647</ele>
        <time>2022-01-23T11:11:49Z</time>
      </trkpt>
      <trkpt lat="45.96225" lon="6.77568">
        <ele>1648</ele>
        <time>2022-01-23T11:11:59Z</time>
      </trkpt>
      <trkpt lat="45.9623" lon="6.77573">
        <ele>1649</ele>
        <time>2022-01-23T11:12:10Z</time>
      </trkpt>
      <trkpt lat="45.96235" lon="6.7758">
        <ele>1650</ele>
        <time>2022-01-23T11:12:24Z</time>
      </trkpt>
      <trkpt lat="45.96246" lon="6.77591">
        <ele>1652</ele>
        <time>2022-01-23T11:12:54Z</time>
      </trkpt>
      <trkpt lat="45.96253" lon="6.77593">
        <ele>1654</ele>
        <time>2022-01-23T11:13:05Z</time>
      </trkpt>
      <trkpt lat="45.96259" lon="6.77599">
        <ele>1656</ele>
        <time>2022-01-23T11:13:25Z</time>
      </trkpt>
      <trkpt lat="45.96272" lon="6.77603">
        <ele>1663</ele>
        <time>2022-01-23T11:13:55Z</time>
      </trkpt>
      <trkpt lat="45.96278" lon="6.77603">
        <ele>1665</ele>
        <time>2022-01-23T11:14:08Z</time>
      </trkpt>
      <trkpt lat="45.96283" lon="6.77595">
        <ele>1666</ele>
        <time>2022-01-23T11:14:23Z</time>
      </trkpt>
      <trkpt lat="45.9629" lon="6.77592">
        <ele>1666</ele>
        <time>2022-01-23T11:14:37Z</time>
      </trkpt>
      <trkpt lat="45.96297" lon="6.77585">
        <ele>1667</ele>
        <time>2022-01-23T11:14:58Z</time>
      </trkpt>
      <trkpt lat="45.96301" lon="6.77581">
        <ele>1668</ele>
        <time>2022-01-23T11:15:13Z</time>
      </trkpt>
      <trkpt lat="45.96311" lon="6.77569">
        <ele>1666</ele>
        <time>2022-01-23T11:15:39Z</time>
      </trkpt>
      <trkpt lat="45.96324" lon="6.77562">
        <ele>1667</ele>
        <time>2022-01-23T11:16:14Z</time>
      </trkpt>
      <trkpt lat="45.9633" lon="6.77556">
        <ele>1669</ele>
        <time>2022-01-23T11:16:31Z</time>
      </trkpt>
      <trkpt lat="45.96333" lon="6.77563">
        <ele>1672</ele>
        <time>2022-01-23T11:16:53Z</time>
      </trkpt>
      <trkpt lat="45.96341" lon="6.77567">
        <ele>1684</ele>
        <time>2022-01-23T11:17:14Z</time>
      </trkpt>
      <trkpt lat="45.96348" lon="6.77567">
        <ele>1686</ele>
        <time>2022-01-23T11:17:32Z</time>
      </trkpt>
      <trkpt lat="45.96363" lon="6.77569">
        <ele>1692</ele>
        <time>2022-01-23T11:18:14Z</time>
      </trkpt>
      <trkpt lat="45.96378" lon="6.77571">
        <ele>1696</ele>
        <time>2022-01-23T11:18:46Z</time>
      </trkpt>
      <trkpt lat="45.96392" lon="6.77561">
        <ele>1698</ele>
        <time>2022-01-23T11:19:46Z</time>
      </trkpt>
      <trkpt lat="45.96399" lon="6.77564">
        <ele>1700</ele>
        <time>2022-01-23T11:20:27Z</time>
      </trkpt>
      <trkpt lat="45.96406" lon="6.77567">
        <ele>1702</ele>
        <time>2022-01-23T11:20:33Z</time>
      </trkpt>
      <trkpt lat="45.96412" lon="6.77563">
        <ele>1709</ele>
        <time>2022-01-23T11:29:29Z</time>
      </trkpt>
      <trkpt lat="45.96411" lon="6.77571">
        <ele>1709</ele>
        <time>2022-01-23T11:29:38Z</time>
      </trkpt>
      <trkpt lat="45.96408" lon="6.77578">
        <ele>1710</ele>
        <time>2022-01-23T11:29:44Z</time>
      </trkpt>
      <trkpt lat="45.964" lon="6.77601">
        <ele>1720</ele>
        <time>2022-01-23T11:30:14Z</time>
      </trkpt>
      <trkpt lat="45.964" lon="6.77609">
        <ele>1722</ele>
        <time>2022-01-23T11:30:23Z</time>
      </trkpt>
      <trkpt lat="45.96402" lon="6.7762">
        <ele>1724</ele>
        <time>2022-01-23T11:30:39Z</time>
      </trkpt>
      <trkpt lat="45.96408" lon="6.77625">
        <ele>1729</ele>
        <time>2022-01-23T11:30:56Z</time>
      </trkpt>
      <trkpt lat="45.96412" lon="6.77616">
        <ele>1729</ele>
        <time>2022-01-23T11:31:11Z</time>
      </trkpt>
      <trkpt lat="45.96419" lon="6.7761">
        <ele>1727</ele>
        <time>2022-01-23T11:31:18Z</time>
      </trkpt>
      <trkpt lat="45.96422" lon="6.77615">
        <ele>1726</ele>
        <time>2022-01-23T11:31:42Z</time>
      </trkpt>
      <trkpt lat="45.96421" lon="6.77627">
        <ele>1727</ele>
        <time>2022-01-23T11:31:52Z</time>
      </trkpt>
      <trkpt lat="45.96418" lon="6.77637">
        <ele>1731</ele>
        <time>2022-01-23T11:31:58Z</time>
      </trkpt>
      <trkpt lat="45.96415" lon="6.77648">
        <ele>1734</ele>
        <time>2022-01-23T11:32:14Z</time>
      </trkpt>
      <trkpt lat="45.96411" lon="6.77658">
        <ele>1738</ele>
        <time>2022-01-23T11:32:25Z</time>
      </trkpt>
      <trkpt lat="45.96407" lon="6.77667">
        <ele>1739</ele>
        <time>2022-01-23T11:32:41Z</time>
      </trkpt>
      <trkpt lat="45.96406" lon="6.77675">
        <ele>1742</ele>
        <time>2022-01-23T11:32:54Z</time>
      </trkpt>
      <trkpt lat="45.964" lon="6.77684">
        <ele>1743</ele>
        <time>2022-01-23T11:33:08Z</time>
      </trkpt>
      <trkpt lat="45.96396" lon="6.77693">
        <ele>1746</ele>
        <time>2022-01-23T11:33:20Z</time>
      </trkpt>
      <trkpt lat="45.96393" lon="6.77704">
        <ele>1747</ele>
        <time>2022-01-23T11:33:35Z</time>
      </trkpt>
      <trkpt lat="45.96385" lon="6.77705">
        <ele>1750</ele>
        <time>2022-01-23T11:33:50Z</time>
      </trkpt>
      <trkpt lat="45.96381" lon="6.7771">
        <ele>1751</ele>
        <time>2022-01-23T11:33:58Z</time>
      </trkpt>
      <trkpt lat="45.96376" lon="6.77713">
        <ele>1754</ele>
        <time>2022-01-23T11:34:12Z</time>
      </trkpt>
      <trkpt lat="45.96372" lon="6.77719">
        <ele>1756</ele>
        <time>2022-01-23T11:34:21Z</time>
      </trkpt>
      <trkpt lat="45.96372" lon="6.77727">
        <ele>1758</ele>
        <time>2022-01-23T11:34:33Z</time>
      </trkpt>
      <trkpt lat="45.96377" lon="6.77731">
        <ele>1759</ele>
        <time>2022-01-23T11:34:49Z</time>
      </trkpt>
      <trkpt lat="45.96382" lon="6.77733">
        <ele>1761</ele>
        <time>2022-01-23T11:35:12Z</time>
      </trkpt>
      <trkpt lat="45.96388" lon="6.77734">
        <ele>1762</ele>
        <time>2022-01-23T11:35:26Z</time>
      </trkpt>
      <trkpt lat="45.96395" lon="6.77735">
        <ele>1764</ele>
        <time>2022-01-23T11:35:35Z</time>
      </trkpt>
      <trkpt lat="45.96402" lon="6.77738">
        <ele>1765</ele>
        <time>2022-01-23T11:35:50Z</time>
      </trkpt>
      <trkpt lat="45.96408" lon="6.77736">
        <ele>1766</ele>
        <time>2022-01-23T11:35:57Z</time>
      </trkpt>
      <trkpt lat="45.96414" lon="6.77729">
        <ele>1766</ele>
        <time>2022-01-23T11:36:12Z</time>
      </trkpt>
      <trkpt lat="45.96419" lon="6.77724">
        <ele>1766</ele>
        <time>2022-01-23T11:36:20Z</time>
      </trkpt>
      <trkpt lat="45.96426" lon="6.77723">
        <ele>1767</ele>
        <time>2022-01-23T11:36:40Z</time>
      </trkpt>
      <trkpt lat="45.96425" lon="6.77731">
        <ele>1771</ele>
        <time>2022-01-23T11:36:55Z</time>
      </trkpt>
      <trkpt lat="45.96422" lon="6.77739">
        <ele>1773</ele>
        <time>2022-01-23T11:37:01Z</time>
      </trkpt>
      <trkpt lat="45.96417" lon="6.77748">
        <ele>1776</ele>
        <time>2022-01-23T11:37:16Z</time>
      </trkpt>
      <trkpt lat="45.96414" lon="6.77763">
        <ele>1780</ele>
        <time>2022-01-23T11:37:30Z</time>
      </trkpt>
      <trkpt lat="45.96421" lon="6.77768">
        <ele>1781</ele>
        <time>2022-01-23T11:37:42Z</time>
      </trkpt>
      <trkpt lat="45.96424" lon="6.77776">
        <ele>1785</ele>
        <time>2022-01-23T11:37:52Z</time>
      </trkpt>
      <trkpt lat="45.96426" lon="6.77785">
        <ele>1788</ele>
        <time>2022-01-23T11:38:08Z</time>
      </trkpt>
      <trkpt lat="45.96431" lon="6.77789">
        <ele>1789</ele>
        <time>2022-01-23T11:38:17Z</time>
      </trkpt>
      <trkpt lat="45.96435" lon="6.77795">
        <ele>1792</ele>
        <time>2022-01-23T11:38:26Z</time>
      </trkpt>
      <trkpt lat="45.9644" lon="6.77798">
        <ele>1794</ele>
        <time>2022-01-23T11:38:39Z</time>
      </trkpt>
      <trkpt lat="45.96447" lon="6.77801">
        <ele>1794</ele>
        <time>2022-01-23T11:38:48Z</time>
      </trkpt>
      <trkpt lat="45.96458" lon="6.77806">
        <ele>1793</ele>
        <time>2022-01-23T11:39:05Z</time>
      </trkpt>
      <trkpt lat="45.96463" lon="6.77808">
        <ele>1793</ele>
        <time>2022-01-23T11:39:13Z</time>
      </trkpt>
      <trkpt lat="45.96468" lon="6.77812">
        <ele>1794</ele>
        <time>2022-01-23T11:39:21Z</time>
      </trkpt>
      <trkpt lat="45.96473" lon="6.77815">
        <ele>1794</ele>
        <time>2022-01-23T11:39:29Z</time>
      </trkpt>
      <trkpt lat="45.96479" lon="6.77817">
        <ele>1796</ele>
        <time>2022-01-23T11:39:38Z</time>
      </trkpt>
      <trkpt lat="45.96484" lon="6.77822">
        <ele>1797</ele>
        <time>2022-01-23T11:39:52Z</time>
      </trkpt>
      <trkpt lat="45.96487" lon="6.77829">
        <ele>1799</ele>
        <time>2022-01-23T11:40:03Z</time>
      </trkpt>
      <trkpt lat="45.96487" lon="6.77839">
        <ele>1800</ele>
        <time>2022-01-23T11:40:17Z</time>
      </trkpt>
      <trkpt lat="45.96487" lon="6.77847">
        <ele>1804</ele>
        <time>2022-01-23T11:40:29Z</time>
      </trkpt>
      <trkpt lat="45.96484" lon="6.77854">
        <ele>1805</ele>
        <time>2022-01-23T11:40:40Z</time>
      </trkpt>
      <trkpt lat="45.96481" lon="6.77861">
        <ele>1808</ele>
        <time>2022-01-23T11:40:50Z</time>
      </trkpt>
      <trkpt lat="45.9648" lon="6.7787">
        <ele>1809</ele>
        <time>2022-01-23T11:40:59Z</time>
      </trkpt>
      <trkpt lat="45.96482" lon="6.77878">
        <ele>1811</ele>
        <time>2022-01-23T11:41:09Z</time>
      </trkpt>
      <trkpt lat="45.96482" lon="6.77888">
        <ele>1814</ele>
        <time>2022-01-23T11:41:26Z</time>
      </trkpt>
      <trkpt lat="45.96484" lon="6.77896">
        <ele>1815</ele>
        <time>2022-01-23T11:41:34Z</time>
      </trkpt>
      <trkpt lat="45.96484" lon="6.77904">
        <ele>1817</ele>
        <time>2022-01-23T11:41:47Z</time>
      </trkpt>
      <trkpt lat="45.96489" lon="6.7791">
        <ele>1817</ele>
        <time>2022-01-23T11:42:05Z</time>
      </trkpt>
      <trkpt lat="45.96495" lon="6.77909">
        <ele>1815</ele>
        <time>2022-01-23T11:42:23Z</time>
      </trkpt>
      <trkpt lat="45.96501" lon="6.77914">
        <ele>1815</ele>
        <time>2022-01-23T11:42:37Z</time>
      </trkpt>
      <trkpt lat="45.965" lon="6.77923">
        <ele>1818</ele>
        <time>2022-01-23T11:42:50Z</time>
      </trkpt>
      <trkpt lat="45.96499" lon="6.77931">
        <ele>1819</ele>
        <time>2022-01-23T11:42:53Z</time>
      </trkpt>
      <trkpt lat="45.96506" lon="6.77937">
        <ele>1823</ele>
        <time>2022-01-23T11:43:10Z</time>
      </trkpt>
      <trkpt lat="45.96511" lon="6.77938">
        <ele>1824</ele>
        <time>2022-01-23T11:43:19Z</time>
      </trkpt>
      <trkpt lat="45.96513" lon="6.77943">
        <ele>1830</ele>
        <time>2022-01-23T11:44:16Z</time>
      </trkpt>
      <trkpt lat="45.96514" lon="6.77948">
        <ele>1830</ele>
        <time>2022-01-23T11:44:24Z</time>
      </trkpt>
      <trkpt lat="45.96511" lon="6.77953">
        <ele>1834</ele>
        <time>2022-01-23T11:44:35Z</time>
      </trkpt>
      <trkpt lat="45.96506" lon="6.77957">
        <ele>1836</ele>
        <time>2022-01-23T11:44:49Z</time>
      </trkpt>
      <trkpt lat="45.96507" lon="6.77963">
        <ele>1837</ele>
        <time>2022-01-23T11:46:03Z</time>
      </trkpt>
      <trkpt lat="45.96512" lon="6.77967">
        <ele>1837</ele>
        <time>2022-01-23T11:46:09Z</time>
      </trkpt>
      <trkpt lat="45.96524" lon="6.77986">
        <ele>1839</ele>
        <time>2022-01-23T11:46:34Z</time>
      </trkpt>
      <trkpt lat="45.96529" lon="6.77991">
        <ele>1841</ele>
        <time>2022-01-23T11:46:42Z</time>
      </trkpt>
      <trkpt lat="45.96532" lon="6.77997">
        <ele>1842</ele>
        <time>2022-01-23T11:46:50Z</time>
      </trkpt>
      <trkpt lat="45.96537" lon="6.78002">
        <ele>1844</ele>
        <time>2022-01-23T11:47:00Z</time>
      </trkpt>
      <trkpt lat="45.96546" lon="6.78013">
        <ele>1845</ele>
        <time>2022-01-23T11:47:25Z</time>
      </trkpt>
      <trkpt lat="45.96549" lon="6.78021">
        <ele>1845</ele>
        <time>2022-01-23T11:47:30Z</time>
      </trkpt>
      <trkpt lat="45.9655" lon="6.78026">
        <ele>1846</ele>
        <time>2022-01-23T11:47:36Z</time>
      </trkpt>
      <trkpt lat="45.96558" lon="6.78036">
        <ele>1847</ele>
        <time>2022-01-23T11:47:55Z</time>
      </trkpt>
      <trkpt lat="45.96564" lon="6.78044">
        <ele>1852</ele>
        <time>2022-01-23T11:48:34Z</time>
      </trkpt>
      <trkpt lat="45.96568" lon="6.78049">
        <ele>1853</ele>
        <time>2022-01-23T11:48:45Z</time>
      </trkpt>
      <trkpt lat="45.96574" lon="6.78053">
        <ele>1854</ele>
        <time>2022-01-23T11:48:54Z</time>
      </trkpt>
      <trkpt lat="45.96578" lon="6.78059">
        <ele>1854</ele>
        <time>2022-01-23T11:49:03Z</time>
      </trkpt>
      <trkpt lat="45.96582" lon="6.78066">
        <ele>1854</ele>
        <time>2022-01-23T11:49:14Z</time>
      </trkpt>
      <trkpt lat="45.96584" lon="6.78076">
        <ele>1855</ele>
        <time>2022-01-23T11:49:22Z</time>
      </trkpt>
      <trkpt lat="45.96585" lon="6.78082">
        <ele>1856</ele>
        <time>2022-01-23T11:49:31Z</time>
      </trkpt>
      <trkpt lat="45.9659" lon="6.78097">
        <ele>1860</ele>
        <time>2022-01-23T11:49:51Z</time>
      </trkpt>
      <trkpt lat="45.96593" lon="6.78104">
        <ele>1864</ele>
        <time>2022-01-23T11:50:01Z</time>
      </trkpt>
      <trkpt lat="45.9659" lon="6.78113">
        <ele>1865</ele>
        <time>2022-01-23T11:50:07Z</time>
      </trkpt>
      <trkpt lat="45.9659" lon="6.7813">
        <ele>1866</ele>
        <time>2022-01-23T11:50:19Z</time>
      </trkpt>
      <trkpt lat="45.96593" lon="6.78137">
        <ele>1867</ele>
        <time>2022-01-23T11:50:29Z</time>
      </trkpt>
      <trkpt lat="45.96597" lon="6.78143">
        <ele>1868</ele>
        <time>2022-01-23T11:50:42Z</time>
      </trkpt>
      <trkpt lat="45.96597" lon="6.78152">
        <ele>1869</ele>
        <time>2022-01-23T11:50:53Z</time>
      </trkpt>
      <trkpt lat="45.96597" lon="6.7816">
        <ele>1872</ele>
        <time>2022-01-23T11:51:04Z</time>
      </trkpt>
      <trkpt lat="45.96603" lon="6.78178">
        <ele>1875</ele>
        <time>2022-01-23T11:51:36Z</time>
      </trkpt>
      <trkpt lat="45.96606" lon="6.78183">
        <ele>1875</ele>
        <time>2022-01-23T11:51:42Z</time>
      </trkpt>
      <trkpt lat="45.96609" lon="6.78189">
        <ele>1876</ele>
        <time>2022-01-23T11:51:57Z</time>
      </trkpt>
      <trkpt lat="45.9661" lon="6.78198">
        <ele>1878</ele>
        <time>2022-01-23T11:52:06Z</time>
      </trkpt>
      <trkpt lat="45.96617" lon="6.78222">
        <ele>1880</ele>
        <time>2022-01-23T11:52:35Z</time>
      </trkpt>
      <trkpt lat="45.96619" lon="6.78227">
        <ele>1882</ele>
        <time>2022-01-23T11:52:44Z</time>
      </trkpt>
      <trkpt lat="45.96623" lon="6.78244">
        <ele>1886</ele>
        <time>2022-01-23T11:53:02Z</time>
      </trkpt>
      <trkpt lat="45.96626" lon="6.78251">
        <ele>1887</ele>
        <time>2022-01-23T11:53:09Z</time>
      </trkpt>
      <trkpt lat="45.96627" lon="6.78257">
        <ele>1888</ele>
        <time>2022-01-23T11:53:15Z</time>
      </trkpt>
      <trkpt lat="45.96631" lon="6.78264">
        <ele>1889</ele>
        <time>2022-01-23T11:53:27Z</time>
      </trkpt>
      <trkpt lat="45.96633" lon="6.78272">
        <ele>1892</ele>
        <time>2022-01-23T11:53:36Z</time>
      </trkpt>
      <trkpt lat="45.96637" lon="6.78276">
        <ele>1892</ele>
        <time>2022-01-23T11:53:45Z</time>
      </trkpt>
      <trkpt lat="45.96638" lon="6.78285">
        <ele>1894</ele>
        <time>2022-01-23T11:54:08Z</time>
      </trkpt>
      <trkpt lat="45.96639" lon="6.78293">
        <ele>1894</ele>
        <time>2022-01-23T11:54:15Z</time>
      </trkpt>
      <trkpt lat="45.96642" lon="6.78301">
        <ele>1895</ele>
        <time>2022-01-23T11:54:23Z</time>
      </trkpt>
      <trkpt lat="45.96645" lon="6.78308">
        <ele>1896</ele>
        <time>2022-01-23T11:54:32Z</time>
      </trkpt>
      <trkpt lat="45.96644" lon="6.78316">
        <ele>1896</ele>
        <time>2022-01-23T11:54:41Z</time>
      </trkpt>
      <trkpt lat="45.96645" lon="6.78325">
        <ele>1897</ele>
        <time>2022-01-23T11:54:48Z</time>
      </trkpt>
      <trkpt lat="45.96649" lon="6.78339">
        <ele>1898</ele>
        <time>2022-01-23T11:55:02Z</time>
      </trkpt>
      <trkpt lat="45.96656" lon="6.78344">
        <ele>1899</ele>
        <time>2022-01-23T11:55:08Z</time>
      </trkpt>
      <trkpt lat="45.96658" lon="6.78351">
        <ele>1900</ele>
        <time>2022-01-23T11:55:14Z</time>
      </trkpt>
      <trkpt lat="45.96659" lon="6.78359">
        <ele>1900</ele>
        <time>2022-01-23T11:55:23Z</time>
      </trkpt>
      <trkpt lat="45.9666" lon="6.78368">
        <ele>1900</ele>
        <time>2022-01-23T11:55:30Z</time>
      </trkpt>
      <trkpt lat="45.96662" lon="6.78375">
        <ele>1901</ele>
        <time>2022-01-23T11:55:41Z</time>
      </trkpt>
      <trkpt lat="45.96662" lon="6.78384">
        <ele>1903</ele>
        <time>2022-01-23T11:55:49Z</time>
      </trkpt>
      <trkpt lat="45.96663" lon="6.78399">
        <ele>1905</ele>
        <time>2022-01-23T11:56:05Z</time>
      </trkpt>
      <trkpt lat="45.96661" lon="6.78404">
        <ele>1906</ele>
        <time>2022-01-23T11:56:12Z</time>
      </trkpt>
      <trkpt lat="45.96664" lon="6.78411">
        <ele>1907</ele>
        <time>2022-01-23T11:56:23Z</time>
      </trkpt>
      <trkpt lat="45.96669" lon="6.78415">
        <ele>1908</ele>
        <time>2022-01-23T11:56:35Z</time>
      </trkpt>
      <trkpt lat="45.96673" lon="6.78418">
        <ele>1911</ele>
        <time>2022-01-23T11:56:48Z</time>
      </trkpt>
      <trkpt lat="45.96672" lon="6.78422">
        <ele>1912</ele>
        <time>2022-01-23T11:56:57Z</time>
      </trkpt>
      <trkpt lat="45.96675" lon="6.78429">
        <ele>1911</ele>
        <time>2022-01-23T11:57:10Z</time>
      </trkpt>
      <trkpt lat="45.9668" lon="6.78434">
        <ele>1911</ele>
        <time>2022-01-23T11:57:21Z</time>
      </trkpt>
      <trkpt lat="45.96685" lon="6.78449">
        <ele>1912</ele>
        <time>2022-01-23T11:57:45Z</time>
      </trkpt>
      <trkpt lat="45.96689" lon="6.78455">
        <ele>1912</ele>
        <time>2022-01-23T11:57:54Z</time>
      </trkpt>
      <trkpt lat="45.96694" lon="6.78459">
        <ele>1912</ele>
        <time>2022-01-23T11:58:04Z</time>
      </trkpt>
      <trkpt lat="45.96699" lon="6.78459">
        <ele>1913</ele>
        <time>2022-01-23T11:58:13Z</time>
      </trkpt>
      <trkpt lat="45.96705" lon="6.78459">
        <ele>1913</ele>
        <time>2022-01-23T11:58:25Z</time>
      </trkpt>
      <trkpt lat="45.96725" lon="6.78457">
        <ele>1913</ele>
        <time>2022-01-23T11:58:44Z</time>
      </trkpt>
      <trkpt lat="45.96742" lon="6.78463">
        <ele>1914</ele>
        <time>2022-01-23T11:59:08Z</time>
      </trkpt>
      <trkpt lat="45.96748" lon="6.78466">
        <ele>1914</ele>
        <time>2022-01-23T11:59:17Z</time>
      </trkpt>
      <trkpt lat="45.96753" lon="6.78471">
        <ele>1916</ele>
        <time>2022-01-23T11:59:28Z</time>
      </trkpt>
      <trkpt lat="45.9676" lon="6.78486">
        <ele>1917</ele>
        <time>2022-01-23T11:59:45Z</time>
      </trkpt>
      <trkpt lat="45.96767" lon="6.78497">
        <ele>1920</ele>
        <time>2022-01-23T12:00:05Z</time>
      </trkpt>
      <trkpt lat="45.96774" lon="6.7851">
        <ele>1922</ele>
        <time>2022-01-23T12:00:23Z</time>
      </trkpt>
      <trkpt lat="45.96777" lon="6.78518">
        <ele>1924</ele>
        <time>2022-01-23T12:00:30Z</time>
      </trkpt>
      <trkpt lat="45.96777" lon="6.78527">
        <ele>1926</ele>
        <time>2022-01-23T12:00:36Z</time>
      </trkpt>
      <trkpt lat="45.96782" lon="6.78531">
        <ele>1928</ele>
        <time>2022-01-23T12:00:49Z</time>
      </trkpt>
      <trkpt lat="45.96789" lon="6.78533">
        <ele>1930</ele>
        <time>2022-01-23T12:00:59Z</time>
      </trkpt>
      <trkpt lat="45.96791" lon="6.78532">
        <ele>1934</ele>
        <time>2022-01-23T12:01:41Z</time>
      </trkpt>
      <trkpt lat="45.96803" lon="6.78527">
        <ele>1935</ele>
        <time>2022-01-23T12:08:54Z</time>
      </trkpt>
      <trkpt lat="45.96811" lon="6.78526">
        <ele>1930</ele>
        <time>2022-01-23T12:09:12Z</time>
      </trkpt>
      <trkpt lat="45.96818" lon="6.7853">
        <ele>1931</ele>
        <time>2022-01-23T12:09:21Z</time>
      </trkpt>
      <trkpt lat="45.96822" lon="6.7854">
        <ele>1933</ele>
        <time>2022-01-23T12:09:38Z</time>
      </trkpt>
      <trkpt lat="45.96829" lon="6.78553">
        <ele>1934</ele>
        <time>2022-01-23T12:09:48Z</time>
      </trkpt>
      <trkpt lat="45.96835" lon="6.78564">
        <ele>1938</ele>
        <time>2022-01-23T12:10:06Z</time>
      </trkpt>
      <trkpt lat="45.96837" lon="6.78578">
        <ele>1941</ele>
        <time>2022-01-23T12:10:16Z</time>
      </trkpt>
      <trkpt lat="45.9684" lon="6.78593">
        <ele>1944</ele>
        <time>2022-01-23T12:10:38Z</time>
      </trkpt>
      <trkpt lat="45.96849" lon="6.78595">
        <ele>1947</ele>
        <time>2022-01-23T12:10:54Z</time>
      </trkpt>
      <trkpt lat="45.96861" lon="6.78598">
        <ele>1949</ele>
        <time>2022-01-23T12:11:18Z</time>
      </trkpt>
      <trkpt lat="45.96866" lon="6.78608">
        <ele>1952</ele>
        <time>2022-01-23T12:11:35Z</time>
      </trkpt>
      <trkpt lat="45.96874" lon="6.78609">
        <ele>1952</ele>
        <time>2022-01-23T12:11:48Z</time>
      </trkpt>
      <trkpt lat="45.96883" lon="6.78616">
        <ele>1955</ele>
        <time>2022-01-23T12:12:05Z</time>
      </trkpt>
      <trkpt lat="45.96893" lon="6.7864">
        <ele>1956</ele>
        <time>2022-01-23T12:12:25Z</time>
      </trkpt>
      <trkpt lat="45.96897" lon="6.7865">
        <ele>1956</ele>
        <time>2022-01-23T12:12:34Z</time>
      </trkpt>
      <trkpt lat="45.96902" lon="6.7866">
        <ele>1956</ele>
        <time>2022-01-23T12:12:42Z</time>
      </trkpt>
      <trkpt lat="45.96905" lon="6.78669">
        <ele>1957</ele>
        <time>2022-01-23T12:12:55Z</time>
      </trkpt>
      <trkpt lat="45.96912" lon="6.78673">
        <ele>1958</ele>
        <time>2022-01-23T12:13:03Z</time>
      </trkpt>
      <trkpt lat="45.9692" lon="6.78675">
        <ele>1958</ele>
        <time>2022-01-23T12:13:13Z</time>
      </trkpt>
      <trkpt lat="45.96925" lon="6.78684">
        <ele>1958</ele>
        <time>2022-01-23T12:13:24Z</time>
      </trkpt>
      <trkpt lat="45.9694" lon="6.78691">
        <ele>1957</ele>
        <time>2022-01-23T12:13:40Z</time>
      </trkpt>
      <trkpt lat="45.96957" lon="6.78711">
        <ele>1955</ele>
        <time>2022-01-23T12:14:13Z</time>
      </trkpt>
      <trkpt lat="45.96964" lon="6.78721">
        <ele>1955</ele>
        <time>2022-01-23T12:14:30Z</time>
      </trkpt>
      <trkpt lat="45.96971" lon="6.78725">
        <ele>1955</ele>
        <time>2022-01-23T12:14:41Z</time>
      </trkpt>
      <trkpt lat="45.96976" lon="6.78736">
        <ele>1956</ele>
        <time>2022-01-23T12:14:55Z</time>
      </trkpt>
      <trkpt lat="45.96977" lon="6.78751">
        <ele>1956</ele>
        <time>2022-01-23T12:15:07Z</time>
      </trkpt>
      <trkpt lat="45.96985" lon="6.7876">
        <ele>1957</ele>
        <time>2022-01-23T12:15:22Z</time>
      </trkpt>
      <trkpt lat="45.96999" lon="6.7877">
        <ele>1958</ele>
        <time>2022-01-23T12:15:48Z</time>
      </trkpt>
      <trkpt lat="45.97004" lon="6.78779">
        <ele>1958</ele>
        <time>2022-01-23T12:16:03Z</time>
      </trkpt>
      <trkpt lat="45.97007" lon="6.78789">
        <ele>1958</ele>
        <time>2022-01-23T12:16:16Z</time>
      </trkpt>
      <trkpt lat="45.9701" lon="6.78799">
        <ele>1960</ele>
        <time>2022-01-23T12:16:22Z</time>
      </trkpt>
      <trkpt lat="45.97011" lon="6.78811">
        <ele>1960</ele>
        <time>2022-01-23T12:16:32Z</time>
      </trkpt>
      <trkpt lat="45.97014" lon="6.78823">
        <ele>1961</ele>
        <time>2022-01-23T12:16:43Z</time>
      </trkpt>
      <trkpt lat="45.97013" lon="6.78834">
        <ele>1962</ele>
        <time>2022-01-23T12:16:52Z</time>
      </trkpt>
      <trkpt lat="45.97021" lon="6.78838">
        <ele>1964</ele>
        <time>2022-01-23T12:17:34Z</time>
      </trkpt>
      <trkpt lat="45.97045" lon="6.78858">
        <ele>1966</ele>
        <time>2022-01-23T12:18:10Z</time>
      </trkpt>
      <trkpt lat="45.97047" lon="6.78868">
        <ele>1968</ele>
        <time>2022-01-23T12:18:26Z</time>
      </trkpt>
      <trkpt lat="45.97051" lon="6.78877">
        <ele>1969</ele>
        <time>2022-01-23T12:18:35Z</time>
      </trkpt>
      <trkpt lat="45.97053" lon="6.78887">
        <ele>1971</ele>
        <time>2022-01-23T12:18:46Z</time>
      </trkpt>
      <trkpt lat="45.97054" lon="6.78898">
        <ele>1975</ele>
        <time>2022-01-23T12:19:01Z</time>
      </trkpt>
      <trkpt lat="45.97064" lon="6.78929">
        <ele>1977</ele>
        <time>2022-01-23T12:19:35Z</time>
      </trkpt>
      <trkpt lat="45.97067" lon="6.78938">
        <ele>1984</ele>
        <time>2022-01-23T12:20:36Z</time>
      </trkpt>
      <trkpt lat="45.97074" lon="6.7894">
        <ele>1980</ele>
        <time>2022-01-23T12:41:06Z</time>
      </trkpt>
      <trkpt lat="45.97081" lon="6.78938">
        <ele>1980</ele>
        <time>2022-01-23T12:52:24Z</time>
      </trkpt>
      <trkpt lat="45.9709" lon="6.78939">
        <ele>1978</ele>
        <time>2022-01-23T12:52:39Z</time>
      </trkpt>
      <trkpt lat="45.97096" lon="6.78938">
        <ele>1977</ele>
        <time>2022-01-23T12:52:51Z</time>
      </trkpt>
      <trkpt lat="45.97104" lon="6.78941">
        <ele>1977</ele>
        <time>2022-01-23T12:53:17Z</time>
      </trkpt>
      <trkpt lat="45.97111" lon="6.78939">
        <ele>1978</ele>
        <time>2022-01-23T12:53:25Z</time>
      </trkpt>
      <trkpt lat="45.97121" lon="6.78943">
        <ele>1979</ele>
        <time>2022-01-23T12:53:36Z</time>
      </trkpt>
      <trkpt lat="45.97127" lon="6.78951">
        <ele>1981</ele>
        <time>2022-01-23T12:53:48Z</time>
      </trkpt>
      <trkpt lat="45.97135" lon="6.78954">
        <ele>1983</ele>
        <time>2022-01-23T12:54:01Z</time>
      </trkpt>
      <trkpt lat="45.9715" lon="6.78956">
        <ele>1984</ele>
        <time>2022-01-23T12:54:15Z</time>
      </trkpt>
      <trkpt lat="45.97158" lon="6.78958">
        <ele>1984</ele>
        <time>2022-01-23T12:54:30Z</time>
      </trkpt>
      <trkpt lat="45.97165" lon="6.78963">
        <ele>1984</ele>
        <time>2022-01-23T12:54:44Z</time>
      </trkpt>
      <trkpt lat="45.97176" lon="6.78968">
        <ele>1984</ele>
        <time>2022-01-23T12:54:59Z</time>
      </trkpt>
      <trkpt lat="45.97183" lon="6.78971">
        <ele>1984</ele>
        <time>2022-01-23T12:55:07Z</time>
      </trkpt>
      <trkpt lat="45.9719" lon="6.78975">
        <ele>1986</ele>
        <time>2022-01-23T12:55:21Z</time>
      </trkpt>
      <trkpt lat="45.97204" lon="6.78984">
        <ele>1991</ele>
        <time>2022-01-23T12:55:38Z</time>
      </trkpt>
      <trkpt lat="45.97212" lon="6.78988">
        <ele>1993</ele>
        <time>2022-01-23T12:55:50Z</time>
      </trkpt>
      <trkpt lat="45.97219" lon="6.78993">
        <ele>1993</ele>
        <time>2022-01-23T12:56:02Z</time>
      </trkpt>
      <trkpt lat="45.97227" lon="6.78996">
        <ele>1992</ele>
        <time>2022-01-23T12:56:13Z</time>
      </trkpt>
      <trkpt lat="45.97235" lon="6.79002">
        <ele>1992</ele>
        <time>2022-01-23T12:56:27Z</time>
      </trkpt>
      <trkpt lat="45.9724" lon="6.79006">
        <ele>1992</ele>
        <time>2022-01-23T12:56:34Z</time>
      </trkpt>
      <trkpt lat="45.97248" lon="6.79012">
        <ele>1992</ele>
        <time>2022-01-23T12:56:50Z</time>
      </trkpt>
      <trkpt lat="45.97255" lon="6.79017">
        <ele>1992</ele>
        <time>2022-01-23T12:56:58Z</time>
      </trkpt>
      <trkpt lat="45.97262" lon="6.7902">
        <ele>1993</ele>
        <time>2022-01-23T12:57:09Z</time>
      </trkpt>
      <trkpt lat="45.97267" lon="6.79027">
        <ele>1994</ele>
        <time>2022-01-23T12:57:16Z</time>
      </trkpt>
      <trkpt lat="45.97273" lon="6.79032">
        <ele>1994</ele>
        <time>2022-01-23T12:57:24Z</time>
      </trkpt>
      <trkpt lat="45.97285" lon="6.79045">
        <ele>1994</ele>
        <time>2022-01-23T12:57:47Z</time>
      </trkpt>
      <trkpt lat="45.97302" lon="6.79073">
        <ele>1995</ele>
        <time>2022-01-23T12:58:21Z</time>
      </trkpt>
      <trkpt lat="45.9732" lon="6.79092">
        <ele>1998</ele>
        <time>2022-01-23T12:58:48Z</time>
      </trkpt>
      <trkpt lat="45.97331" lon="6.79108">
        <ele>2000</ele>
        <time>2022-01-23T12:59:10Z</time>
      </trkpt>
      <trkpt lat="45.97339" lon="6.79113">
        <ele>2001</ele>
        <time>2022-01-23T12:59:19Z</time>
      </trkpt>
      <trkpt lat="45.97353" lon="6.79126">
        <ele>2003</ele>
        <time>2022-01-23T12:59:41Z</time>
      </trkpt>
      <trkpt lat="45.97365" lon="6.79138">
        <ele>2005</ele>
        <time>2022-01-23T12:59:59Z</time>
      </trkpt>
      <trkpt lat="45.97373" lon="6.79144">
        <ele>2006</ele>
        <time>2022-01-23T13:00:14Z</time>
      </trkpt>
      <trkpt lat="45.97382" lon="6.79148">
        <ele>2007</ele>
        <time>2022-01-23T13:00:22Z</time>
      </trkpt>
      <trkpt lat="45.97402" lon="6.79172">
        <ele>2009</ele>
        <time>2022-01-23T13:00:59Z</time>
      </trkpt>
      <trkpt lat="45.97416" lon="6.7919">
        <ele>2010</ele>
        <time>2022-01-23T13:01:32Z</time>
      </trkpt>
      <trkpt lat="45.97421" lon="6.79199">
        <ele>2006</ele>
        <time>2022-01-23T13:01:52Z</time>
      </trkpt>
      <trkpt lat="45.97429" lon="6.79194">
        <ele>2006</ele>
        <time>2022-01-23T13:02:17Z</time>
      </trkpt>
      <trkpt lat="45.97431" lon="6.79205">
        <ele>2016</ele>
        <time>2022-01-23T13:02:56Z</time>
      </trkpt>
      <trkpt lat="45.97429" lon="6.79214">
        <ele>2020</ele>
        <time>2022-01-23T13:03:11Z</time>
      </trkpt>
      <trkpt lat="45.97427" lon="6.79224">
        <ele>2024</ele>
        <time>2022-01-23T13:03:27Z</time>
      </trkpt>
      <trkpt lat="45.9742" lon="6.79235">
        <ele>2027</ele>
        <time>2022-01-23T13:03:38Z</time>
      </trkpt>
      <trkpt lat="45.97421" lon="6.79243">
        <ele>2030</ele>
        <time>2022-01-23T13:04:01Z</time>
      </trkpt>
      <trkpt lat="45.97424" lon="6.79251">
        <ele>2035</ele>
        <time>2022-01-23T13:04:14Z</time>
      </trkpt>
      <trkpt lat="45.97424" lon="6.79259">
        <ele>2036</ele>
        <time>2022-01-23T13:04:32Z</time>
      </trkpt>
      <trkpt lat="45.97431" lon="6.79266">
        <ele>2039</ele>
        <time>2022-01-23T13:04:54Z</time>
      </trkpt>
      <trkpt lat="45.97439" lon="6.79263">
        <ele>2041</ele>
        <time>2022-01-23T13:05:09Z</time>
      </trkpt>
      <trkpt lat="45.97446" lon="6.79258">
        <ele>2047</ele>
        <time>2022-01-23T13:05:25Z</time>
      </trkpt>
      <trkpt lat="45.97453" lon="6.79252">
        <ele>2048</ele>
        <time>2022-01-23T13:05:36Z</time>
      </trkpt>
      <trkpt lat="45.97457" lon="6.79271">
        <ele>2051</ele>
        <time>2022-01-23T13:06:11Z</time>
      </trkpt>
      <trkpt lat="45.97459" lon="6.79281">
        <ele>2053</ele>
        <time>2022-01-23T13:06:36Z</time>
      </trkpt>
      <trkpt lat="45.97466" lon="6.79298">
        <ele>2055</ele>
        <time>2022-01-23T13:06:59Z</time>
      </trkpt>
      <trkpt lat="45.97473" lon="6.79301">
        <ele>2057</ele>
        <time>2022-01-23T13:07:18Z</time>
      </trkpt>
      <trkpt lat="45.97482" lon="6.79318">
        <ele>2058</ele>
        <time>2022-01-23T13:07:47Z</time>
      </trkpt>
      <trkpt lat="45.97489" lon="6.79326">
        <ele>2059</ele>
        <time>2022-01-23T13:07:58Z</time>
      </trkpt>
      <trkpt lat="45.97495" lon="6.7933">
        <ele>2060</ele>
        <time>2022-01-23T13:08:09Z</time>
      </trkpt>
      <trkpt lat="45.97502" lon="6.79335">
        <ele>2060</ele>
        <time>2022-01-23T13:08:27Z</time>
      </trkpt>
      <trkpt lat="45.97507" lon="6.79346">
        <ele>2062</ele>
        <time>2022-01-23T13:09:14Z</time>
      </trkpt>
      <trkpt lat="45.97514" lon="6.79355">
        <ele>2064</ele>
        <time>2022-01-23T13:09:23Z</time>
      </trkpt>
      <trkpt lat="45.9752" lon="6.79362">
        <ele>2067</ele>
        <time>2022-01-23T13:09:33Z</time>
      </trkpt>
      <trkpt lat="45.97531" lon="6.79377">
        <ele>2068</ele>
        <time>2022-01-23T13:09:57Z</time>
      </trkpt>
      <trkpt lat="45.97533" lon="6.79387">
        <ele>2069</ele>
        <time>2022-01-23T13:10:13Z</time>
      </trkpt>
      <trkpt lat="45.97539" lon="6.79395">
        <ele>2071</ele>
        <time>2022-01-23T13:10:27Z</time>
      </trkpt>
      <trkpt lat="45.97543" lon="6.79403">
        <ele>2072</ele>
        <time>2022-01-23T13:10:43Z</time>
      </trkpt>
      <trkpt lat="45.97547" lon="6.79413">
        <ele>2073</ele>
        <time>2022-01-23T13:11:01Z</time>
      </trkpt>
      <trkpt lat="45.9756" lon="6.79424">
        <ele>2076</ele>
        <time>2022-01-23T13:11:23Z</time>
      </trkpt>
      <trkpt lat="45.97565" lon="6.79431">
        <ele>2077</ele>
        <time>2022-01-23T13:11:30Z</time>
      </trkpt>
      <trkpt lat="45.97576" lon="6.79446">
        <ele>2078</ele>
        <time>2022-01-23T13:11:59Z</time>
      </trkpt>
      <trkpt lat="45.97583" lon="6.79452">
        <ele>2081</ele>
        <time>2022-01-23T13:12:12Z</time>
      </trkpt>
      <trkpt lat="45.9759" lon="6.79457">
        <ele>2081</ele>
        <time>2022-01-23T13:12:26Z</time>
      </trkpt>
      <trkpt lat="45.97609" lon="6.79487">
        <ele>2080</ele>
        <time>2022-01-23T13:12:57Z</time>
      </trkpt>
      <trkpt lat="45.97614" lon="6.79497">
        <ele>2079</ele>
        <time>2022-01-23T13:13:12Z</time>
      </trkpt>
      <trkpt lat="45.97628" lon="6.79515">
        <ele>2077</ele>
        <time>2022-01-23T13:13:52Z</time>
      </trkpt>
      <trkpt lat="45.97636" lon="6.79523">
        <ele>2076</ele>
        <time>2022-01-23T13:14:00Z</time>
      </trkpt>
      <trkpt lat="45.97643" lon="6.7953">
        <ele>2077</ele>
        <time>2022-01-23T13:14:12Z</time>
      </trkpt>
      <trkpt lat="45.97649" lon="6.79536">
        <ele>2078</ele>
        <time>2022-01-23T13:14:30Z</time>
      </trkpt>
      <trkpt lat="45.97644" lon="6.79546">
        <ele>2080</ele>
        <time>2022-01-23T13:14:49Z</time>
      </trkpt>
      <trkpt lat="45.97647" lon="6.79558">
        <ele>2081</ele>
        <time>2022-01-23T13:15:01Z</time>
      </trkpt>
      <trkpt lat="45.97654" lon="6.79563">
        <ele>2081</ele>
        <time>2022-01-23T13:15:09Z</time>
      </trkpt>
      <trkpt lat="45.97659" lon="6.79572">
        <ele>2082</ele>
        <time>2022-01-23T13:15:17Z</time>
      </trkpt>
      <trkpt lat="45.97667" lon="6.79577">
        <ele>2082</ele>
        <time>2022-01-23T13:15:28Z</time>
      </trkpt>
      <trkpt lat="45.97681" lon="6.79608">
        <ele>2086</ele>
        <time>2022-01-23T13:16:06Z</time>
      </trkpt>
      <trkpt lat="45.97687" lon="6.79612">
        <ele>2087</ele>
        <time>2022-01-23T13:16:22Z</time>
      </trkpt>
      <trkpt lat="45.97695" lon="6.79614">
        <ele>2087</ele>
        <time>2022-01-23T13:16:32Z</time>
      </trkpt>
      <trkpt lat="45.97703" lon="6.79615">
        <ele>2086</ele>
        <time>2022-01-23T13:16:44Z</time>
      </trkpt>
      <trkpt lat="45.9771" lon="6.79618">
        <ele>2088</ele>
        <time>2022-01-23T13:17:19Z</time>
      </trkpt>
      <trkpt lat="45.97715" lon="6.79626">
        <ele>2090</ele>
        <time>2022-01-23T13:17:28Z</time>
      </trkpt>
      <trkpt lat="45.97723" lon="6.79624">
        <ele>2091</ele>
        <time>2022-01-23T13:18:03Z</time>
      </trkpt>
      <trkpt lat="45.97727" lon="6.79615">
        <ele>2091</ele>
        <time>2022-01-23T13:18:24Z</time>
      </trkpt>
      <trkpt lat="45.97733" lon="6.79621">
        <ele>2091</ele>
        <time>2022-01-23T13:18:39Z</time>
      </trkpt>
      <trkpt lat="45.97742" lon="6.79626">
        <ele>2093</ele>
        <time>2022-01-23T13:19:03Z</time>
      </trkpt>
      <trkpt lat="45.9776" lon="6.7963">
        <ele>2095</ele>
        <time>2022-01-23T13:19:38Z</time>
      </trkpt>
      <trkpt lat="45.97767" lon="6.79633">
        <ele>2096</ele>
        <time>2022-01-23T13:20:01Z</time>
      </trkpt>
      <trkpt lat="45.97768" lon="6.79649">
        <ele>2098</ele>
        <time>2022-01-23T13:20:21Z</time>
      </trkpt>
      <trkpt lat="45.97771" lon="6.79664">
        <ele>2103</ele>
        <time>2022-01-23T13:20:40Z</time>
      </trkpt>
      <trkpt lat="45.97778" lon="6.79671">
        <ele>2104</ele>
        <time>2022-01-23T13:20:55Z</time>
      </trkpt>
      <trkpt lat="45.97781" lon="6.79682">
        <ele>2105</ele>
        <time>2022-01-23T13:21:04Z</time>
      </trkpt>
      <trkpt lat="45.97784" lon="6.79692">
        <ele>2106</ele>
        <time>2022-01-23T13:21:25Z</time>
      </trkpt>
      <trkpt lat="45.97791" lon="6.79699">
        <ele>2109</ele>
        <time>2022-01-23T13:21:41Z</time>
      </trkpt>
      <trkpt lat="45.97801" lon="6.79706">
        <ele>2111</ele>
        <time>2022-01-23T13:22:01Z</time>
      </trkpt>
      <trkpt lat="45.97808" lon="6.79715">
        <ele>2114</ele>
        <time>2022-01-23T13:22:25Z</time>
      </trkpt>
      <trkpt lat="45.97817" lon="6.79724">
        <ele>2117</ele>
        <time>2022-01-23T13:23:03Z</time>
      </trkpt>
      <trkpt lat="45.97821" lon="6.79715">
        <ele>2121</ele>
        <time>2022-01-23T13:23:53Z</time>
      </trkpt>
      <trkpt lat="45.97839" lon="6.79714">
        <ele>2133</ele>
        <time>2022-01-23T13:24:24Z</time>
      </trkpt>
      <trkpt lat="45.97837" lon="6.7971">
        <ele>2136</ele>
        <time>2022-01-23T13:24:58Z</time>
      </trkpt>
      <trkpt lat="45.9784" lon="6.797">
        <ele>2139</ele>
        <time>2022-01-23T13:25:39Z</time>
      </trkpt>
      <trkpt lat="45.9784" lon="6.79688">
        <ele>2146</ele>
        <time>2022-01-23T13:25:55Z</time>
      </trkpt>
      <trkpt lat="45.97847" lon="6.79689">
        <ele>2148</ele>
        <time>2022-01-23T13:26:10Z</time>
      </trkpt>
      <trkpt lat="45.97855" lon="6.79687">
        <ele>2153</ele>
        <time>2022-01-23T13:26:22Z</time>
      </trkpt>
      <trkpt lat="45.97862" lon="6.79689">
        <ele>2153</ele>
        <time>2022-01-23T13:26:36Z</time>
      </trkpt>
      <trkpt lat="45.97869" lon="6.79693">
        <ele>2154</ele>
        <time>2022-01-23T13:26:52Z</time>
      </trkpt>
      <trkpt lat="45.97875" lon="6.79698">
        <ele>2157</ele>
        <time>2022-01-23T13:27:15Z</time>
      </trkpt>
      <trkpt lat="45.97879" lon="6.79697">
        <ele>2164</ele>
        <time>2022-01-23T13:28:00Z</time>
      </trkpt>
      <trkpt lat="45.97878" lon="6.79689">
        <ele>2166</ele>
        <time>2022-01-23T13:28:16Z</time>
      </trkpt>
      <trkpt lat="45.97877" lon="6.79681">
        <ele>2170</ele>
        <time>2022-01-23T13:28:31Z</time>
      </trkpt>
      <trkpt lat="45.9789" lon="6.79682">
        <ele>2173</ele>
        <time>2022-01-23T13:29:01Z</time>
      </trkpt>
      <trkpt lat="45.97905" lon="6.7969">
        <ele>2177</ele>
        <time>2022-01-23T13:29:33Z</time>
      </trkpt>
      <trkpt lat="45.97913" lon="6.79694">
        <ele>2177</ele>
        <time>2022-01-23T13:29:51Z</time>
      </trkpt>
      <trkpt lat="45.97921" lon="6.79697">
        <ele>2178</ele>
        <time>2022-01-23T13:30:08Z</time>
      </trkpt>
      <trkpt lat="45.97924" lon="6.79703">
        <ele>2177</ele>
        <time>2022-01-23T13:30:21Z</time>
      </trkpt>
      <trkpt lat="45.9793" lon="6.79709">
        <ele>2179</ele>
        <time>2022-01-23T13:30:34Z</time>
      </trkpt>
      <trkpt lat="45.97938" lon="6.79717">
        <ele>2181</ele>
        <time>2022-01-23T13:31:00Z</time>
      </trkpt>
      <trkpt lat="45.97942" lon="6.79726">
        <ele>2186</ele>
        <time>2022-01-23T13:31:22Z</time>
      </trkpt>
      <trkpt lat="45.97945" lon="6.79736">
        <ele>2189</ele>
        <time>2022-01-23T13:31:31Z</time>
      </trkpt>
      <trkpt lat="45.97949" lon="6.79735">
        <ele>2196</ele>
        <time>2022-01-23T13:32:44Z</time>
      </trkpt>
      <trkpt lat="45.97958" lon="6.79734">
        <ele>2199</ele>
        <time>2022-01-23T13:33:18Z</time>
      </trkpt>
      <trkpt lat="45.9796" lon="6.79729">
        <ele>2201</ele>
        <time>2022-01-23T13:33:43Z</time>
      </trkpt>
      <trkpt lat="45.9797" lon="6.79726">
        <ele>2211</ele>
        <time>2022-01-23T13:34:20Z</time>
      </trkpt>
      <trkpt lat="45.9798" lon="6.79731">
        <ele>2214</ele>
        <time>2022-01-23T13:35:06Z</time>
      </trkpt>
      <trkpt lat="45.97984" lon="6.79722">
        <ele>2216</ele>
        <time>2022-01-23T13:36:03Z</time>
      </trkpt>
      <trkpt lat="45.97986" lon="6.79712">
        <ele>2226</ele>
        <time>2022-01-23T13:36:30Z</time>
      </trkpt>
      <trkpt lat="45.97985" lon="6.79701">
        <ele>2228</ele>
        <time>2022-01-23T13:36:46Z</time>
      </trkpt>
      <trkpt lat="45.97985" lon="6.79691">
        <ele>2231</ele>
        <time>2022-01-23T13:37:08Z</time>
      </trkpt>
      <trkpt lat="45.97991" lon="6.79684">
        <ele>2234</ele>
        <time>2022-01-23T13:37:46Z</time>
      </trkpt>
      <trkpt lat="45.97998" lon="6.79684">
        <ele>2239</ele>
        <time>2022-01-23T13:38:18Z</time>
      </trkpt>
      <trkpt lat="45.98005" lon="6.79678">
        <ele>2242</ele>
        <time>2022-01-23T13:39:09Z</time>
      </trkpt>
      <trkpt lat="45.98004" lon="6.79669">
        <ele>2246</ele>
        <time>2022-01-23T13:39:27Z</time>
      </trkpt>
      <trkpt lat="45.98003" lon="6.79662">
        <ele>2249</ele>
        <time>2022-01-23T13:39:38Z</time>
      </trkpt>
      <trkpt lat="45.98002" lon="6.79654">
        <ele>2250</ele>
        <time>2022-01-23T13:39:51Z</time>
      </trkpt>
      <trkpt lat="45.98009" lon="6.79653">
        <ele>2252</ele>
        <time>2022-01-23T13:40:15Z</time>
      </trkpt>
      <trkpt lat="45.98017" lon="6.79653">
        <ele>2253</ele>
        <time>2022-01-23T13:40:26Z</time>
      </trkpt>
      <trkpt lat="45.98017" lon="6.79649">
        <ele>2258</ele>
        <time>2022-01-23T13:41:54Z</time>
      </trkpt>
      <trkpt lat="45.98013" lon="6.79644">
        <ele>2258</ele>
        <time>2022-01-23T13:42:15Z</time>
      </trkpt>
      <trkpt lat="45.98009" lon="6.79632">
        <ele>2262</ele>
        <time>2022-01-23T13:42:53Z</time>
      </trkpt>
      <trkpt lat="45.98009" lon="6.79622">
        <ele>2268</ele>
        <time>2022-01-23T13:43:55Z</time>
      </trkpt>
      <trkpt lat="45.98019" lon="6.79641">
        <ele>2267</ele>
        <time>2022-01-23T14:04:12Z</time>
      </trkpt>
      <trkpt lat="45.98011" lon="6.7966">
        <ele>2267</ele>
        <time>2022-01-23T14:04:37Z</time>
      </trkpt>
      <trkpt lat="45.97997" lon="6.79688">
        <ele>2265</ele>
        <time>2022-01-23T14:04:48Z</time>
      </trkpt>
      <trkpt lat="45.97991" lon="6.79702">
        <ele>2261</ele>
        <time>2022-01-23T14:04:51Z</time>
      </trkpt>
      <trkpt lat="45.97984" lon="6.79723">
        <ele>2256</ele>
        <time>2022-01-23T14:05:08Z</time>
      </trkpt>
      <trkpt lat="45.97973" lon="6.79726">
        <ele>2249</ele>
        <time>2022-01-23T14:05:17Z</time>
      </trkpt>
      <trkpt lat="45.97966" lon="6.79719">
        <ele>2242</ele>
        <time>2022-01-23T14:05:33Z</time>
      </trkpt>
      <trkpt lat="45.97961" lon="6.79741">
        <ele>2240</ele>
        <time>2022-01-23T14:05:52Z</time>
      </trkpt>
      <trkpt lat="45.9795" lon="6.7976">
        <ele>2233</ele>
        <time>2022-01-23T14:06:00Z</time>
      </trkpt>
      <trkpt lat="45.97939" lon="6.79755">
        <ele>2230</ele>
        <time>2022-01-23T14:06:04Z</time>
      </trkpt>
      <trkpt lat="45.97929" lon="6.79762">
        <ele>2221</ele>
        <time>2022-01-23T14:06:08Z</time>
      </trkpt>
      <trkpt lat="45.97912" lon="6.79765">
        <ele>2201</ele>
        <time>2022-01-23T14:06:30Z</time>
      </trkpt>
      <trkpt lat="45.97901" lon="6.79745">
        <ele>2197</ele>
        <time>2022-01-23T14:07:29Z</time>
      </trkpt>
      <trkpt lat="45.97888" lon="6.79742">
        <ele>2188</ele>
        <time>2022-01-23T14:07:32Z</time>
      </trkpt>
      <trkpt lat="45.97877" lon="6.79742">
        <ele>2186</ele>
        <time>2022-01-23T14:07:35Z</time>
      </trkpt>
      <trkpt lat="45.97867" lon="6.79733">
        <ele>2180</ele>
        <time>2022-01-23T14:07:37Z</time>
      </trkpt>
      <trkpt lat="45.97855" lon="6.79717">
        <ele>2176</ele>
        <time>2022-01-23T14:07:41Z</time>
      </trkpt>
      <trkpt lat="45.97837" lon="6.79693">
        <ele>2172</ele>
        <time>2022-01-23T14:07:51Z</time>
      </trkpt>
      <trkpt lat="45.9782" lon="6.79691">
        <ele>2167</ele>
        <time>2022-01-23T14:09:17Z</time>
      </trkpt>
      <trkpt lat="45.97808" lon="6.79693">
        <ele>2159</ele>
        <time>2022-01-23T14:09:21Z</time>
      </trkpt>
      <trkpt lat="45.97798" lon="6.79671">
        <ele>2155</ele>
        <time>2022-01-23T14:09:30Z</time>
      </trkpt>
      <trkpt lat="45.97785" lon="6.7966">
        <ele>2150</ele>
        <time>2022-01-23T14:09:33Z</time>
      </trkpt>
      <trkpt lat="45.97776" lon="6.79642">
        <ele>2147</ele>
        <time>2022-01-23T14:09:47Z</time>
      </trkpt>
      <trkpt lat="45.97766" lon="6.79628">
        <ele>2143</ele>
        <time>2022-01-23T14:09:52Z</time>
      </trkpt>
      <trkpt lat="45.97752" lon="6.79625">
        <ele>2140</ele>
        <time>2022-01-23T14:09:56Z</time>
      </trkpt>
      <trkpt lat="45.97742" lon="6.79631">
        <ele>2136</ele>
        <time>2022-01-23T14:10:11Z</time>
      </trkpt>
      <trkpt lat="45.97727" lon="6.79623">
        <ele>2135</ele>
        <time>2022-01-23T14:10:16Z</time>
      </trkpt>
      <trkpt lat="45.97719" lon="6.79623">
        <ele>2128</ele>
        <time>2022-01-23T14:10:26Z</time>
      </trkpt>
      <trkpt lat="45.97711" lon="6.79623">
        <ele>2127</ele>
        <time>2022-01-23T14:10:35Z</time>
      </trkpt>
      <trkpt lat="45.97705" lon="6.79625">
        <ele>2121</ele>
        <time>2022-01-23T14:11:43Z</time>
      </trkpt>
      <trkpt lat="45.97689" lon="6.79615">
        <ele>2120</ele>
        <time>2022-01-23T14:12:16Z</time>
      </trkpt>
      <trkpt lat="45.97679" lon="6.79603">
        <ele>2112</ele>
        <time>2022-01-23T14:12:20Z</time>
      </trkpt>
      <trkpt lat="45.97669" lon="6.79593">
        <ele>2109</ele>
        <time>2022-01-23T14:12:23Z</time>
      </trkpt>
      <trkpt lat="45.97656" lon="6.79585">
        <ele>2107</ele>
        <time>2022-01-23T14:12:27Z</time>
      </trkpt>
      <trkpt lat="45.97642" lon="6.79571">
        <ele>2102</ele>
        <time>2022-01-23T14:12:32Z</time>
      </trkpt>
      <trkpt lat="45.97632" lon="6.79562">
        <ele>2100</ele>
        <time>2022-01-23T14:12:34Z</time>
      </trkpt>
      <trkpt lat="45.97621" lon="6.79553">
        <ele>2097</ele>
        <time>2022-01-23T14:12:36Z</time>
      </trkpt>
      <trkpt lat="45.97613" lon="6.79542">
        <ele>2095</ele>
        <time>2022-01-23T14:12:38Z</time>
      </trkpt>
      <trkpt lat="45.97596" lon="6.79507">
        <ele>2089</ele>
        <time>2022-01-23T14:12:43Z</time>
      </trkpt>
      <trkpt lat="45.97574" lon="6.79483">
        <ele>2085</ele>
        <time>2022-01-23T14:12:48Z</time>
      </trkpt>
      <trkpt lat="45.97562" lon="6.79475">
        <ele>2083</ele>
        <time>2022-01-23T14:12:52Z</time>
      </trkpt>
      <trkpt lat="45.97552" lon="6.79459">
        <ele>2082</ele>
        <time>2022-01-23T14:13:44Z</time>
      </trkpt>
      <trkpt lat="45.97539" lon="6.79446">
        <ele>2081</ele>
        <time>2022-01-23T14:13:48Z</time>
      </trkpt>
      <trkpt lat="45.97529" lon="6.79435">
        <ele>2080</ele>
        <time>2022-01-23T14:13:52Z</time>
      </trkpt>
      <trkpt lat="45.97523" lon="6.7942">
        <ele>2079</ele>
        <time>2022-01-23T14:14:00Z</time>
      </trkpt>
      <trkpt lat="45.97496" lon="6.79372">
        <ele>2077</ele>
        <time>2022-01-23T14:14:20Z</time>
      </trkpt>
      <trkpt lat="45.97487" lon="6.79363">
        <ele>2076</ele>
        <time>2022-01-23T14:15:10Z</time>
      </trkpt>
      <trkpt lat="45.97472" lon="6.79334">
        <ele>2075</ele>
        <time>2022-01-23T14:15:21Z</time>
      </trkpt>
      <trkpt lat="45.97462" lon="6.79306">
        <ele>2074</ele>
        <time>2022-01-23T14:15:30Z</time>
      </trkpt>
      <trkpt lat="45.97461" lon="6.79289">
        <ele>2074</ele>
        <time>2022-01-23T14:15:33Z</time>
      </trkpt>
      <trkpt lat="45.97459" lon="6.79265">
        <ele>2074</ele>
        <time>2022-01-23T14:15:36Z</time>
      </trkpt>
      <trkpt lat="45.97457" lon="6.79243">
        <ele>2071</ele>
        <time>2022-01-23T14:15:40Z</time>
      </trkpt>
      <trkpt lat="45.97453" lon="6.79211">
        <ele>2069</ele>
        <time>2022-01-23T14:15:49Z</time>
      </trkpt>
      <trkpt lat="45.97458" lon="6.79217">
        <ele>2066</ele>
        <time>2022-01-23T14:16:40Z</time>
      </trkpt>
      <trkpt lat="45.97457" lon="6.79248">
        <ele>2063</ele>
        <time>2022-01-23T14:16:46Z</time>
      </trkpt>
      <trkpt lat="45.97453" lon="6.79261">
        <ele>2063</ele>
        <time>2022-01-23T14:16:50Z</time>
      </trkpt>
      <trkpt lat="45.97441" lon="6.79263">
        <ele>2062</ele>
        <time>2022-01-23T14:16:53Z</time>
      </trkpt>
      <trkpt lat="45.97428" lon="6.79264">
        <ele>2060</ele>
        <time>2022-01-23T14:16:55Z</time>
      </trkpt>
      <trkpt lat="45.97418" lon="6.79257">
        <ele>2053</ele>
        <time>2022-01-23T14:17:21Z</time>
      </trkpt>
      <trkpt lat="45.974" lon="6.79258">
        <ele>2053</ele>
        <time>2022-01-23T14:17:26Z</time>
      </trkpt>
      <trkpt lat="45.97405" lon="6.79243">
        <ele>2049</ele>
        <time>2022-01-23T14:17:43Z</time>
      </trkpt>
      <trkpt lat="45.97397" lon="6.79231">
        <ele>2047</ele>
        <time>2022-01-23T14:17:46Z</time>
      </trkpt>
      <trkpt lat="45.97393" lon="6.79203">
        <ele>2045</ele>
        <time>2022-01-23T14:17:50Z</time>
      </trkpt>
      <trkpt lat="45.97381" lon="6.79184">
        <ele>2044</ele>
        <time>2022-01-23T14:17:54Z</time>
      </trkpt>
      <trkpt lat="45.9737" lon="6.79167">
        <ele>2041</ele>
        <time>2022-01-23T14:17:57Z</time>
      </trkpt>
      <trkpt lat="45.97362" lon="6.79156">
        <ele>2035</ele>
        <time>2022-01-23T14:17:58Z</time>
      </trkpt>
      <trkpt lat="45.97349" lon="6.79143">
        <ele>2027</ele>
        <time>2022-01-23T14:18:02Z</time>
      </trkpt>
      <trkpt lat="45.97336" lon="6.79134">
        <ele>2023</ele>
        <time>2022-01-23T14:18:06Z</time>
      </trkpt>
      <trkpt lat="45.97326" lon="6.7913">
        <ele>2018</ele>
        <time>2022-01-23T14:18:07Z</time>
      </trkpt>
      <trkpt lat="45.97301" lon="6.79101">
        <ele>2018</ele>
        <time>2022-01-23T14:18:38Z</time>
      </trkpt>
      <trkpt lat="45.97234" lon="6.7903">
        <ele>2018</ele>
        <time>2022-01-23T14:19:01Z</time>
      </trkpt>
      <trkpt lat="45.97224" lon="6.79021">
        <ele>2016</ele>
        <time>2022-01-23T14:19:02Z</time>
      </trkpt>
      <trkpt lat="45.97216" lon="6.79014">
        <ele>2014</ele>
        <time>2022-01-23T14:19:05Z</time>
      </trkpt>
      <trkpt lat="45.97207" lon="6.79006">
        <ele>2008</ele>
        <time>2022-01-23T14:19:06Z</time>
      </trkpt>
      <trkpt lat="45.97193" lon="6.78991">
        <ele>2005</ele>
        <time>2022-01-23T14:19:10Z</time>
      </trkpt>
      <trkpt lat="45.97123" lon="6.7896">
        <ele>2000</ele>
        <time>2022-01-23T14:19:22Z</time>
      </trkpt>
      <trkpt lat="45.9711" lon="6.78953">
        <ele>1997</ele>
        <time>2022-01-23T14:19:26Z</time>
      </trkpt>
      <trkpt lat="45.97103" lon="6.78947">
        <ele>1996</ele>
        <time>2022-01-23T14:19:35Z</time>
      </trkpt>
      <trkpt lat="45.97091" lon="6.78937">
        <ele>1998</ele>
        <time>2022-01-23T14:20:35Z</time>
      </trkpt>
      <trkpt lat="45.97064" lon="6.78901">
        <ele>1998</ele>
        <time>2022-01-23T14:20:46Z</time>
      </trkpt>
      <trkpt lat="45.97049" lon="6.78896">
        <ele>1997</ele>
        <time>2022-01-23T14:21:14Z</time>
      </trkpt>
      <trkpt lat="45.97042" lon="6.78883">
        <ele>1996</ele>
        <time>2022-01-23T14:21:17Z</time>
      </trkpt>
      <trkpt lat="45.97036" lon="6.78865">
        <ele>1994</ele>
        <time>2022-01-23T14:21:18Z</time>
      </trkpt>
      <trkpt lat="45.97025" lon="6.78845">
        <ele>1989</ele>
        <time>2022-01-23T14:21:51Z</time>
      </trkpt>
      <trkpt lat="45.97021" lon="6.7883">
        <ele>1988</ele>
        <time>2022-01-23T14:22:22Z</time>
      </trkpt>
      <trkpt lat="45.97004" lon="6.78785">
        <ele>1986</ele>
        <time>2022-01-23T14:22:37Z</time>
      </trkpt>
      <trkpt lat="45.96995" lon="6.78761">
        <ele>1985</ele>
        <time>2022-01-23T14:22:50Z</time>
      </trkpt>
      <trkpt lat="45.96989" lon="6.78754">
        <ele>1984</ele>
        <time>2022-01-23T14:22:54Z</time>
      </trkpt>
      <trkpt lat="45.96978" lon="6.78733">
        <ele>1984</ele>
        <time>2022-01-23T14:23:06Z</time>
      </trkpt>
      <trkpt lat="45.96975" lon="6.78723">
        <ele>1983</ele>
        <time>2022-01-23T14:23:14Z</time>
      </trkpt>
      <trkpt lat="45.96968" lon="6.78711">
        <ele>1982</ele>
        <time>2022-01-23T14:23:31Z</time>
      </trkpt>
      <trkpt lat="45.96964" lon="6.78701">
        <ele>1981</ele>
        <time>2022-01-23T14:23:41Z</time>
      </trkpt>
      <trkpt lat="45.96951" lon="6.78686">
        <ele>1981</ele>
        <time>2022-01-23T14:23:49Z</time>
      </trkpt>
      <trkpt lat="45.96946" lon="6.78682">
        <ele>1981</ele>
        <time>2022-01-23T14:23:53Z</time>
      </trkpt>
      <trkpt lat="45.96938" lon="6.78672">
        <ele>1979</ele>
        <time>2022-01-23T14:24:11Z</time>
      </trkpt>
      <trkpt lat="45.96932" lon="6.78668">
        <ele>1978</ele>
        <time>2022-01-23T14:24:19Z</time>
      </trkpt>
      <trkpt lat="45.96929" lon="6.78659">
        <ele>1978</ele>
        <time>2022-01-23T14:24:34Z</time>
      </trkpt>
      <trkpt lat="45.96924" lon="6.78644">
        <ele>1978</ele>
        <time>2022-01-23T14:24:50Z</time>
      </trkpt>
      <trkpt lat="45.96914" lon="6.7862">
        <ele>1978</ele>
        <time>2022-01-23T14:25:33Z</time>
      </trkpt>
      <trkpt lat="45.96902" lon="6.78604">
        <ele>1980</ele>
        <time>2022-01-23T14:25:55Z</time>
      </trkpt>
      <trkpt lat="45.96899" lon="6.78593">
        <ele>1980</ele>
        <time>2022-01-23T14:26:11Z</time>
      </trkpt>
      <trkpt lat="45.96889" lon="6.78581">
        <ele>1980</ele>
        <time>2022-01-23T14:26:40Z</time>
      </trkpt>
      <trkpt lat="45.96883" lon="6.78575">
        <ele>1982</ele>
        <time>2022-01-23T14:26:57Z</time>
      </trkpt>
      <trkpt lat="45.9688" lon="6.78568">
        <ele>1983</ele>
        <time>2022-01-23T14:27:18Z</time>
      </trkpt>
      <trkpt lat="45.96873" lon="6.78562">
        <ele>1986</ele>
        <time>2022-01-23T14:27:58Z</time>
      </trkpt>
      <trkpt lat="45.96864" lon="6.78543">
        <ele>1987</ele>
        <time>2022-01-23T14:28:22Z</time>
      </trkpt>
      <trkpt lat="45.96857" lon="6.78522">
        <ele>1992</ele>
        <time>2022-01-23T14:29:34Z</time>
      </trkpt>
      <trkpt lat="45.96843" lon="6.78509">
        <ele>1993</ele>
        <time>2022-01-23T14:29:38Z</time>
      </trkpt>
      <trkpt lat="45.96834" lon="6.78497">
        <ele>1991</ele>
        <time>2022-01-23T14:29:41Z</time>
      </trkpt>
      <trkpt lat="45.96821" lon="6.78478">
        <ele>1987</ele>
        <time>2022-01-23T14:29:45Z</time>
      </trkpt>
      <trkpt lat="45.96819" lon="6.78456">
        <ele>1983</ele>
        <time>2022-01-23T14:29:46Z</time>
      </trkpt>
      <trkpt lat="45.96816" lon="6.78435">
        <ele>1980</ele>
        <time>2022-01-23T14:29:49Z</time>
      </trkpt>
      <trkpt lat="45.96812" lon="6.78417">
        <ele>1975</ele>
        <time>2022-01-23T14:29:50Z</time>
      </trkpt>
      <trkpt lat="45.96808" lon="6.784">
        <ele>1973</ele>
        <time>2022-01-23T14:29:53Z</time>
      </trkpt>
      <trkpt lat="45.9679" lon="6.78338">
        <ele>1966</ele>
        <time>2022-01-23T14:30:02Z</time>
      </trkpt>
      <trkpt lat="45.96788" lon="6.78318">
        <ele>1966</ele>
        <time>2022-01-23T14:30:19Z</time>
      </trkpt>
      <trkpt lat="45.96782" lon="6.78299">
        <ele>1962</ele>
        <time>2022-01-23T14:32:06Z</time>
      </trkpt>
      <trkpt lat="45.96778" lon="6.78277">
        <ele>1960</ele>
        <time>2022-01-23T14:32:10Z</time>
      </trkpt>
      <trkpt lat="45.9677" lon="6.78272">
        <ele>1956</ele>
        <time>2022-01-23T14:32:11Z</time>
      </trkpt>
      <trkpt lat="45.96765" lon="6.78264">
        <ele>1955</ele>
        <time>2022-01-23T14:32:14Z</time>
      </trkpt>
      <trkpt lat="45.96751" lon="6.78256">
        <ele>1950</ele>
        <time>2022-01-23T14:32:18Z</time>
      </trkpt>
      <trkpt lat="45.96729" lon="6.78251">
        <ele>1945</ele>
        <time>2022-01-23T14:32:22Z</time>
      </trkpt>
      <trkpt lat="45.96714" lon="6.78246">
        <ele>1944</ele>
        <time>2022-01-23T14:32:26Z</time>
      </trkpt>
      <trkpt lat="45.96704" lon="6.7824">
        <ele>1941</ele>
        <time>2022-01-23T14:32:27Z</time>
      </trkpt>
      <trkpt lat="45.96693" lon="6.78241">
        <ele>1939</ele>
        <time>2022-01-23T14:32:30Z</time>
      </trkpt>
      <trkpt lat="45.96678" lon="6.78234">
        <ele>1932</ele>
        <time>2022-01-23T14:32:33Z</time>
      </trkpt>
      <trkpt lat="45.96666" lon="6.78223">
        <ele>1925</ele>
        <time>2022-01-23T14:32:35Z</time>
      </trkpt>
      <trkpt lat="45.96657" lon="6.78219">
        <ele>1923</ele>
        <time>2022-01-23T14:32:38Z</time>
      </trkpt>
      <trkpt lat="45.96644" lon="6.78213">
        <ele>1913</ele>
        <time>2022-01-23T14:32:41Z</time>
      </trkpt>
      <trkpt lat="45.96644" lon="6.78195">
        <ele>1909</ele>
        <time>2022-01-23T14:33:50Z</time>
      </trkpt>
      <trkpt lat="45.96639" lon="6.78177">
        <ele>1908</ele>
        <time>2022-01-23T14:33:54Z</time>
      </trkpt>
      <trkpt lat="45.96626" lon="6.78168">
        <ele>1904</ele>
        <time>2022-01-23T14:33:57Z</time>
      </trkpt>
      <trkpt lat="45.96614" lon="6.78158">
        <ele>1900</ele>
        <time>2022-01-23T14:33:59Z</time>
      </trkpt>
      <trkpt lat="45.96609" lon="6.78146">
        <ele>1897</ele>
        <time>2022-01-23T14:34:01Z</time>
      </trkpt>
      <trkpt lat="45.96596" lon="6.78138">
        <ele>1889</ele>
        <time>2022-01-23T14:34:32Z</time>
      </trkpt>
      <trkpt lat="45.96587" lon="6.78138">
        <ele>1885</ele>
        <time>2022-01-23T14:34:35Z</time>
      </trkpt>
      <trkpt lat="45.96584" lon="6.78122">
        <ele>1883</ele>
        <time>2022-01-23T14:34:37Z</time>
      </trkpt>
      <trkpt lat="45.96584" lon="6.78105">
        <ele>1875</ele>
        <time>2022-01-23T14:34:41Z</time>
      </trkpt>
      <trkpt lat="45.96585" lon="6.7809">
        <ele>1872</ele>
        <time>2022-01-23T14:34:44Z</time>
      </trkpt>
      <trkpt lat="45.96582" lon="6.78073">
        <ele>1870</ele>
        <time>2022-01-23T14:34:47Z</time>
      </trkpt>
      <trkpt lat="45.96572" lon="6.78039">
        <ele>1868</ele>
        <time>2022-01-23T14:34:54Z</time>
      </trkpt>
      <trkpt lat="45.96564" lon="6.77971">
        <ele>1865</ele>
        <time>2022-01-23T14:35:29Z</time>
      </trkpt>
      <trkpt lat="45.96568" lon="6.77953">
        <ele>1863</ele>
        <time>2022-01-23T14:35:58Z</time>
      </trkpt>
      <trkpt lat="45.96569" lon="6.77937">
        <ele>1859</ele>
        <time>2022-01-23T14:36:00Z</time>
      </trkpt>
      <trkpt lat="45.96572" lon="6.77919">
        <ele>1856</ele>
        <time>2022-01-23T14:36:03Z</time>
      </trkpt>
      <trkpt lat="45.96571" lon="6.77904">
        <ele>1855</ele>
        <time>2022-01-23T14:36:05Z</time>
      </trkpt>
      <trkpt lat="45.96565" lon="6.77894">
        <ele>1854</ele>
        <time>2022-01-23T14:36:07Z</time>
      </trkpt>
      <trkpt lat="45.96557" lon="6.77894">
        <ele>1852</ele>
        <time>2022-01-23T14:36:09Z</time>
      </trkpt>
      <trkpt lat="45.96551" lon="6.77886">
        <ele>1850</ele>
        <time>2022-01-23T14:36:11Z</time>
      </trkpt>
      <trkpt lat="45.96544" lon="6.77877">
        <ele>1848</ele>
        <time>2022-01-23T14:36:13Z</time>
      </trkpt>
      <trkpt lat="45.96537" lon="6.7787">
        <ele>1847</ele>
        <time>2022-01-23T14:36:15Z</time>
      </trkpt>
      <trkpt lat="45.96529" lon="6.77863">
        <ele>1844</ele>
        <time>2022-01-23T14:36:17Z</time>
      </trkpt>
      <trkpt lat="45.96522" lon="6.7786">
        <ele>1843</ele>
        <time>2022-01-23T14:36:19Z</time>
      </trkpt>
      <trkpt lat="45.96514" lon="6.77855">
        <ele>1839</ele>
        <time>2022-01-23T14:36:21Z</time>
      </trkpt>
      <trkpt lat="45.96509" lon="6.77846">
        <ele>1836</ele>
        <time>2022-01-23T14:36:24Z</time>
      </trkpt>
      <trkpt lat="45.96502" lon="6.77852">
        <ele>1835</ele>
        <time>2022-01-23T14:36:27Z</time>
      </trkpt>
      <trkpt lat="45.96491" lon="6.77847">
        <ele>1833</ele>
        <time>2022-01-23T14:37:28Z</time>
      </trkpt>
      <trkpt lat="45.96485" lon="6.77842">
        <ele>1829</ele>
        <time>2022-01-23T14:37:31Z</time>
      </trkpt>
      <trkpt lat="45.96478" lon="6.77824">
        <ele>1827</ele>
        <time>2022-01-23T14:37:48Z</time>
      </trkpt>
      <trkpt lat="45.9646" lon="6.77803">
        <ele>1817</ele>
        <time>2022-01-23T14:37:54Z</time>
      </trkpt>
      <trkpt lat="45.9645" lon="6.778">
        <ele>1813</ele>
        <time>2022-01-23T14:37:57Z</time>
      </trkpt>
      <trkpt lat="45.96436" lon="6.778">
        <ele>1811</ele>
        <time>2022-01-23T14:38:00Z</time>
      </trkpt>
      <trkpt lat="45.96428" lon="6.77794">
        <ele>1807</ele>
        <time>2022-01-23T14:38:03Z</time>
      </trkpt>
      <trkpt lat="45.96425" lon="6.77783">
        <ele>1806</ele>
        <time>2022-01-23T14:38:06Z</time>
      </trkpt>
      <trkpt lat="45.9642" lon="6.77772">
        <ele>1804</ele>
        <time>2022-01-23T14:38:09Z</time>
      </trkpt>
      <trkpt lat="45.96414" lon="6.77761">
        <ele>1802</ele>
        <time>2022-01-23T14:38:12Z</time>
      </trkpt>
      <trkpt lat="45.96416" lon="6.77745">
        <ele>1800</ele>
        <time>2022-01-23T14:38:19Z</time>
      </trkpt>
      <trkpt lat="45.96424" lon="6.77733">
        <ele>1799</ele>
        <time>2022-01-23T14:38:24Z</time>
      </trkpt>
      <trkpt lat="45.96413" lon="6.77728">
        <ele>1796</ele>
        <time>2022-01-23T14:38:26Z</time>
      </trkpt>
      <trkpt lat="45.96403" lon="6.77736">
        <ele>1793</ele>
        <time>2022-01-23T14:38:30Z</time>
      </trkpt>
      <trkpt lat="45.96397" lon="6.7774">
        <ele>1787</ele>
        <time>2022-01-23T14:38:49Z</time>
      </trkpt>
      <trkpt lat="45.96388" lon="6.7774">
        <ele>1787</ele>
        <time>2022-01-23T14:38:59Z</time>
      </trkpt>
      <trkpt lat="45.96377" lon="6.77736">
        <ele>1783</ele>
        <time>2022-01-23T14:39:03Z</time>
      </trkpt>
      <trkpt lat="45.96371" lon="6.77729">
        <ele>1779</ele>
        <time>2022-01-23T14:39:05Z</time>
      </trkpt>
      <trkpt lat="45.96369" lon="6.77719">
        <ele>1773</ele>
        <time>2022-01-23T14:39:20Z</time>
      </trkpt>
      <trkpt lat="45.96364" lon="6.77714">
        <ele>1771</ele>
        <time>2022-01-23T14:41:22Z</time>
      </trkpt>
      <trkpt lat="45.96373" lon="6.77703">
        <ele>1771</ele>
        <time>2022-01-23T14:41:40Z</time>
      </trkpt>
      <trkpt lat="45.96381" lon="6.777">
        <ele>1767</ele>
        <time>2022-01-23T14:41:42Z</time>
      </trkpt>
      <trkpt lat="45.96403" lon="6.77654">
        <ele>1763</ele>
        <time>2022-01-23T14:41:57Z</time>
      </trkpt>
      <trkpt lat="45.96411" lon="6.77643">
        <ele>1761</ele>
        <time>2022-01-23T14:42:00Z</time>
      </trkpt>
      <trkpt lat="45.96419" lon="6.77628">
        <ele>1758</ele>
        <time>2022-01-23T14:42:03Z</time>
      </trkpt>
      <trkpt lat="45.96419" lon="6.77607">
        <ele>1755</ele>
        <time>2022-01-23T14:42:53Z</time>
      </trkpt>
      <trkpt lat="45.96422" lon="6.7759">
        <ele>1749</ele>
        <time>2022-01-23T14:42:57Z</time>
      </trkpt>
      <trkpt lat="45.96421" lon="6.77572">
        <ele>1747</ele>
        <time>2022-01-23T14:43:01Z</time>
      </trkpt>
      <trkpt lat="45.96422" lon="6.77528">
        <ele>1742</ele>
        <time>2022-01-23T14:43:10Z</time>
      </trkpt>
      <trkpt lat="45.96422" lon="6.77512">
        <ele>1741</ele>
        <time>2022-01-23T14:43:13Z</time>
      </trkpt>
      <trkpt lat="45.96421" lon="6.77489">
        <ele>1739</ele>
        <time>2022-01-23T14:43:16Z</time>
      </trkpt>
      <trkpt lat="45.96419" lon="6.7747">
        <ele>1736</ele>
        <time>2022-01-23T14:43:18Z</time>
      </trkpt>
      <trkpt lat="45.96415" lon="6.77453">
        <ele>1735</ele>
        <time>2022-01-23T14:43:20Z</time>
      </trkpt>
      <trkpt lat="45.96402" lon="6.77414">
        <ele>1730</ele>
        <time>2022-01-23T14:43:29Z</time>
      </trkpt>
      <trkpt lat="45.96389" lon="6.77379">
        <ele>1725</ele>
        <time>2022-01-23T14:43:34Z</time>
      </trkpt>
      <trkpt lat="45.96383" lon="6.77358">
        <ele>1721</ele>
        <time>2022-01-23T14:43:37Z</time>
      </trkpt>
      <trkpt lat="45.96377" lon="6.77339">
        <ele>1718</ele>
        <time>2022-01-23T14:43:41Z</time>
      </trkpt>
      <trkpt lat="45.96372" lon="6.77319">
        <ele>1715</ele>
        <time>2022-01-23T14:43:44Z</time>
      </trkpt>
      <trkpt lat="45.96369" lon="6.77308">
        <ele>1713</ele>
        <time>2022-01-23T14:43:46Z</time>
      </trkpt>
      <trkpt lat="45.96366" lon="6.77281">
        <ele>1713</ele>
        <time>2022-01-23T14:45:07Z</time>
      </trkpt>
      <trkpt lat="45.96363" lon="6.77261">
        <ele>1715</ele>
        <time>2022-01-23T14:45:10Z</time>
      </trkpt>
      <trkpt lat="45.96347" lon="6.77248">
        <ele>1714</ele>
        <time>2022-01-23T14:45:14Z</time>
      </trkpt>
      <trkpt lat="45.96341" lon="6.7724">
        <ele>1711</ele>
        <time>2022-01-23T14:45:16Z</time>
      </trkpt>
      <trkpt lat="45.96331" lon="6.77235">
        <ele>1709</ele>
        <time>2022-01-23T14:45:18Z</time>
      </trkpt>
      <trkpt lat="45.96309" lon="6.77213">
        <ele>1697</ele>
        <time>2022-01-23T14:45:30Z</time>
      </trkpt>
      <trkpt lat="45.96308" lon="6.77222">
        <ele>1696</ele>
        <time>2022-01-23T14:45:44Z</time>
      </trkpt>
      <trkpt lat="45.96301" lon="6.77237">
        <ele>1693</ele>
        <time>2022-01-23T14:45:55Z</time>
      </trkpt>
      <trkpt lat="45.96292" lon="6.77244">
        <ele>1692</ele>
        <time>2022-01-23T14:45:58Z</time>
      </trkpt>
      <trkpt lat="45.96285" lon="6.77241">
        <ele>1690</ele>
        <time>2022-01-23T14:46:10Z</time>
      </trkpt>
      <trkpt lat="45.96293" lon="6.77235">
        <ele>1682</ele>
        <time>2022-01-23T14:49:00Z</time>
      </trkpt>
      <trkpt lat="45.96291" lon="6.77218">
        <ele>1678</ele>
        <time>2022-01-23T14:49:08Z</time>
      </trkpt>
      <trkpt lat="45.96278" lon="6.77211">
        <ele>1673</ele>
        <time>2022-01-23T14:49:11Z</time>
      </trkpt>
      <trkpt lat="45.96266" lon="6.77207">
        <ele>1672</ele>
        <time>2022-01-23T14:49:14Z</time>
      </trkpt>
      <trkpt lat="45.96256" lon="6.77198">
        <ele>1669</ele>
        <time>2022-01-23T14:49:16Z</time>
      </trkpt>
      <trkpt lat="45.96245" lon="6.77191">
        <ele>1668</ele>
        <time>2022-01-23T14:49:19Z</time>
      </trkpt>
      <trkpt lat="45.96233" lon="6.77184">
        <ele>1663</ele>
        <time>2022-01-23T14:49:20Z</time>
      </trkpt>
      <trkpt lat="45.9622" lon="6.77183">
        <ele>1662</ele>
        <time>2022-01-23T14:49:23Z</time>
      </trkpt>
      <trkpt lat="45.96213" lon="6.77182">
        <ele>1659</ele>
        <time>2022-01-23T14:49:23Z</time>
      </trkpt>
      <trkpt lat="45.96191" lon="6.77168">
        <ele>1656</ele>
        <time>2022-01-23T14:49:27Z</time>
      </trkpt>
      <trkpt lat="45.96186" lon="6.77161">
        <ele>1652</ele>
        <time>2022-01-23T14:49:27Z</time>
      </trkpt>
      <trkpt lat="45.96169" lon="6.77136">
        <ele>1649</ele>
        <time>2022-01-23T14:49:31Z</time>
      </trkpt>
      <trkpt lat="45.96141" lon="6.77114">
        <ele>1645</ele>
        <time>2022-01-23T14:49:35Z</time>
      </trkpt>
      <trkpt lat="45.96137" lon="6.77106">
        <ele>1644</ele>
        <time>2022-01-23T14:49:35Z</time>
      </trkpt>
      <trkpt lat="45.96137" lon="6.77095">
        <ele>1642</ele>
        <time>2022-01-23T14:49:38Z</time>
      </trkpt>
      <trkpt lat="45.96135" lon="6.77083">
        <ele>1641</ele>
        <time>2022-01-23T14:49:39Z</time>
      </trkpt>
      <trkpt lat="45.96128" lon="6.77066">
        <ele>1639</ele>
        <time>2022-01-23T14:49:42Z</time>
      </trkpt>
      <trkpt lat="45.96124" lon="6.77046">
        <ele>1639</ele>
        <time>2022-01-23T14:49:51Z</time>
      </trkpt>
      <trkpt lat="45.9612" lon="6.77039">
        <ele>1640</ele>
        <time>2022-01-23T14:49:52Z</time>
      </trkpt>
      <trkpt lat="45.96116" lon="6.77007">
        <ele>1640</ele>
        <time>2022-01-23T14:50:03Z</time>
      </trkpt>
      <trkpt lat="45.96093" lon="6.76953">
        <ele>1638</ele>
        <time>2022-01-23T14:50:14Z</time>
      </trkpt>
      <trkpt lat="45.96075" lon="6.76925">
        <ele>1634</ele>
        <time>2022-01-23T14:50:19Z</time>
      </trkpt>
      <trkpt lat="45.96069" lon="6.76919">
        <ele>1633</ele>
        <time>2022-01-23T14:50:22Z</time>
      </trkpt>
      <trkpt lat="45.96062" lon="6.76916">
        <ele>1634</ele>
        <time>2022-01-23T14:50:23Z</time>
      </trkpt>
      <trkpt lat="45.96011" lon="6.76924">
        <ele>1636</ele>
        <time>2022-01-23T14:50:43Z</time>
      </trkpt>
      <trkpt lat="45.95994" lon="6.76932">
        <ele>1636</ele>
        <time>2022-01-23T14:51:47Z</time>
      </trkpt>
      <trkpt lat="45.95979" lon="6.76942">
        <ele>1636</ele>
        <time>2022-01-23T14:52:11Z</time>
      </trkpt>
      <trkpt lat="45.9595" lon="6.76951">
        <ele>1635</ele>
        <time>2022-01-23T14:52:42Z</time>
      </trkpt>
      <trkpt lat="45.95935" lon="6.76953">
        <ele>1635</ele>
        <time>2022-01-23T14:52:51Z</time>
      </trkpt>
      <trkpt lat="45.95927" lon="6.76955">
        <ele>1636</ele>
        <time>2022-01-23T14:52:55Z</time>
      </trkpt>
      <trkpt lat="45.95909" lon="6.76954">
        <ele>1637</ele>
        <time>2022-01-23T14:53:50Z</time>
      </trkpt>
      <trkpt lat="45.95901" lon="6.76948">
        <ele>1636</ele>
        <time>2022-01-23T14:53:56Z</time>
      </trkpt>
      <trkpt lat="45.95891" lon="6.76936">
        <ele>1637</ele>
        <time>2022-01-23T14:54:12Z</time>
      </trkpt>
      <trkpt lat="45.95887" lon="6.76925">
        <ele>1636</ele>
        <time>2022-01-23T14:54:15Z</time>
      </trkpt>
      <trkpt lat="45.95859" lon="6.76897">
        <ele>1632</ele>
        <time>2022-01-23T14:54:31Z</time>
      </trkpt>
      <trkpt lat="45.95851" lon="6.76897">
        <ele>1632</ele>
        <time>2022-01-23T14:54:35Z</time>
      </trkpt>
      <trkpt lat="45.95842" lon="6.76896">
        <ele>1635</ele>
        <time>2022-01-23T14:54:36Z</time>
      </trkpt>
      <trkpt lat="45.95833" lon="6.76893">
        <ele>1635</ele>
        <time>2022-01-23T14:54:39Z</time>
      </trkpt>
      <trkpt lat="45.95805" lon="6.76868">
        <ele>1633</ele>
        <time>2022-01-23T14:54:50Z</time>
      </trkpt>
      <trkpt lat="45.95789" lon="6.76823">
        <ele>1631</ele>
        <time>2022-01-23T14:54:59Z</time>
      </trkpt>
      <trkpt lat="45.95784" lon="6.7681">
        <ele>1630</ele>
        <time>2022-01-23T14:55:03Z</time>
      </trkpt>
      <trkpt lat="45.95789" lon="6.76771">
        <ele>1624</ele>
        <time>2022-01-23T14:55:08Z</time>
      </trkpt>
      <trkpt lat="45.95787" lon="6.76755">
        <ele>1624</ele>
        <time>2022-01-23T14:55:12Z</time>
      </trkpt>
      <trkpt lat="45.95783" lon="6.7672">
        <ele>1621</ele>
        <time>2022-01-23T14:55:19Z</time>
      </trkpt>
      <trkpt lat="45.95787" lon="6.76697">
        <ele>1620</ele>
        <time>2022-01-23T14:55:26Z</time>
      </trkpt>
      <trkpt lat="45.95793" lon="6.76651">
        <ele>1614</ele>
        <time>2022-01-23T14:55:31Z</time>
      </trkpt>
      <trkpt lat="45.9579" lon="6.76613">
        <ele>1612</ele>
        <time>2022-01-23T14:55:35Z</time>
      </trkpt>
      <trkpt lat="45.95801" lon="6.76543">
        <ele>1608</ele>
        <time>2022-01-23T14:55:47Z</time>
      </trkpt>
      <trkpt lat="45.958" lon="6.7653">
        <ele>1608</ele>
        <time>2022-01-23T14:55:51Z</time>
      </trkpt>
      <trkpt lat="45.95788" lon="6.76527">
        <ele>1606</ele>
        <time>2022-01-23T14:56:11Z</time>
      </trkpt>
      <trkpt lat="45.95779" lon="6.76526">
        <ele>1606</ele>
        <time>2022-01-23T14:56:18Z</time>
      </trkpt>
      <trkpt lat="45.95771" lon="6.76522">
        <ele>1605</ele>
        <time>2022-01-23T14:56:24Z</time>
      </trkpt>
      <trkpt lat="45.95764" lon="6.76519">
        <ele>1605</ele>
        <time>2022-01-23T14:56:31Z</time>
      </trkpt>
      <trkpt lat="45.95758" lon="6.76517">
        <ele>1604</ele>
        <time>2022-01-23T14:56:38Z</time>
      </trkpt>
      <trkpt lat="45.95752" lon="6.76511">
        <ele>1604</ele>
        <time>2022-01-23T14:56:44Z</time>
      </trkpt>
      <trkpt lat="45.95715" lon="6.76439">
        <ele>1599</ele>
        <time>2022-01-23T14:56:59Z</time>
      </trkpt>
      <trkpt lat="45.95699" lon="6.76407">
        <ele>1596</ele>
        <time>2022-01-23T14:57:04Z</time>
      </trkpt>
      <trkpt lat="45.95669" lon="6.76372">
        <ele>1592</ele>
        <time>2022-01-23T14:57:12Z</time>
      </trkpt>
      <trkpt lat="45.95664" lon="6.76334">
        <ele>1593</ele>
        <time>2022-01-23T14:57:18Z</time>
      </trkpt>
      <trkpt lat="45.9566" lon="6.76318">
        <ele>1593</ele>
        <time>2022-01-23T14:57:24Z</time>
      </trkpt>
      <trkpt lat="45.95657" lon="6.76304">
        <ele>1598</ele>
        <time>2022-01-23T15:02:15Z</time>
      </trkpt>
      <trkpt lat="45.95653" lon="6.76291">
        <ele>1602</ele>
        <time>2022-01-23T15:03:03Z</time>
      </trkpt>
      <trkpt lat="45.95632" lon="6.76237">
        <ele>1602</ele>
        <time>2022-01-23T15:03:35Z</time>
      </trkpt>
      <trkpt lat="45.95633" lon="6.76217">
        <ele>1603</ele>
        <time>2022-01-23T15:03:46Z</time>
      </trkpt>
      <trkpt lat="45.95626" lon="6.7621">
        <ele>1604</ele>
        <time>2022-01-23T15:03:55Z</time>
      </trkpt>
      <trkpt lat="45.95613" lon="6.76198">
        <ele>1605</ele>
        <time>2022-01-23T15:04:07Z</time>
      </trkpt>
      <trkpt lat="45.956" lon="6.76179">
        <ele>1605</ele>
        <time>2022-01-23T15:04:23Z</time>
      </trkpt>
      <trkpt lat="45.95597" lon="6.76169">
        <ele>1605</ele>
        <time>2022-01-23T15:04:31Z</time>
      </trkpt>
      <trkpt lat="45.956" lon="6.76159">
        <ele>1605</ele>
        <time>2022-01-23T15:04:43Z</time>
      </trkpt>
      <trkpt lat="45.95613" lon="6.76147">
        <ele>1606</ele>
        <time>2022-01-23T15:04:56Z</time>
      </trkpt>
      <trkpt lat="45.95629" lon="6.76134">
        <ele>1606</ele>
        <time>2022-01-23T15:05:17Z</time>
      </trkpt>
      <trkpt lat="45.95636" lon="6.7612">
        <ele>1606</ele>
        <time>2022-01-23T15:05:27Z</time>
      </trkpt>
      <trkpt lat="45.95638" lon="6.76108">
        <ele>1606</ele>
        <time>2022-01-23T15:05:38Z</time>
      </trkpt>
      <trkpt lat="45.9564" lon="6.76098">
        <ele>1607</ele>
        <time>2022-01-23T15:05:47Z</time>
      </trkpt>
      <trkpt lat="45.95647" lon="6.76092">
        <ele>1607</ele>
        <time>2022-01-23T15:05:55Z</time>
      </trkpt>
      <trkpt lat="45.95665" lon="6.76083">
        <ele>1607</ele>
        <time>2022-01-23T15:06:06Z</time>
      </trkpt>
      <trkpt lat="45.95671" lon="6.76073">
        <ele>1607</ele>
        <time>2022-01-23T15:06:15Z</time>
      </trkpt>
      <trkpt lat="45.95678" lon="6.76061">
        <ele>1607</ele>
        <time>2022-01-23T15:06:22Z</time>
      </trkpt>
      <trkpt lat="45.95681" lon="6.76045">
        <ele>1606</ele>
        <time>2022-01-23T15:06:32Z</time>
      </trkpt>
      <trkpt lat="45.95685" lon="6.76024">
        <ele>1605</ele>
        <time>2022-01-23T15:06:37Z</time>
      </trkpt>
      <trkpt lat="45.95685" lon="6.76006">
        <ele>1605</ele>
        <time>2022-01-23T15:06:40Z</time>
      </trkpt>
      <trkpt lat="45.95685" lon="6.75992">
        <ele>1605</ele>
        <time>2022-01-23T15:06:48Z</time>
      </trkpt>
      <trkpt lat="45.95687" lon="6.7598">
        <ele>1605</ele>
        <time>2022-01-23T15:06:57Z</time>
      </trkpt>
      <trkpt lat="45.95686" lon="6.75956">
        <ele>1604</ele>
        <time>2022-01-23T15:07:13Z</time>
      </trkpt>
      <trkpt lat="45.95682" lon="6.75946">
        <ele>1603</ele>
        <time>2022-01-23T15:07:21Z</time>
      </trkpt>
      <trkpt lat="45.95676" lon="6.75939">
        <ele>1603</ele>
        <time>2022-01-23T15:07:30Z</time>
      </trkpt>
      <trkpt lat="45.95669" lon="6.75936">
        <ele>1603</ele>
        <time>2022-01-23T15:07:37Z</time>
      </trkpt>
      <trkpt lat="45.95661" lon="6.75935">
        <ele>1602</ele>
        <time>2022-01-23T15:07:46Z</time>
      </trkpt>
      <trkpt lat="45.95656" lon="6.75929">
        <ele>1602</ele>
        <time>2022-01-23T15:07:55Z</time>
      </trkpt>
      <trkpt lat="45.95654" lon="6.75918">
        <ele>1602</ele>
        <time>2022-01-23T15:08:02Z</time>
      </trkpt>
      <trkpt lat="45.95653" lon="6.75908">
        <ele>1603</ele>
        <time>2022-01-23T15:08:07Z</time>
      </trkpt>
      <trkpt lat="45.95656" lon="6.7588">
        <ele>1603</ele>
        <time>2022-01-23T15:08:24Z</time>
      </trkpt>
      <trkpt lat="45.95656" lon="6.75864">
        <ele>1603</ele>
        <time>2022-01-23T15:08:39Z</time>
      </trkpt>
      <trkpt lat="45.95662" lon="6.75838">
        <ele>1605</ele>
        <time>2022-01-23T15:09:01Z</time>
      </trkpt>
      <trkpt lat="45.95657" lon="6.75826">
        <ele>1607</ele>
        <time>2022-01-23T15:09:11Z</time>
      </trkpt>
      <trkpt lat="45.95662" lon="6.75813">
        <ele>1608</ele>
        <time>2022-01-23T15:09:16Z</time>
      </trkpt>
      <trkpt lat="45.95665" lon="6.75801">
        <ele>1609</ele>
        <time>2022-01-23T15:09:20Z</time>
      </trkpt>
      <trkpt lat="45.95668" lon="6.75779">
        <ele>1610</ele>
        <time>2022-01-23T15:09:33Z</time>
      </trkpt>
      <trkpt lat="45.95669" lon="6.75757">
        <ele>1608</ele>
        <time>2022-01-23T15:09:47Z</time>
      </trkpt>
      <trkpt lat="45.95666" lon="6.75735">
        <ele>1607</ele>
        <time>2022-01-23T15:10:02Z</time>
      </trkpt>
      <trkpt lat="45.9566" lon="6.75728">
        <ele>1607</ele>
        <time>2022-01-23T15:10:11Z</time>
      </trkpt>
      <trkpt lat="45.95653" lon="6.7572">
        <ele>1608</ele>
        <time>2022-01-23T15:10:18Z</time>
      </trkpt>
      <trkpt lat="45.95648" lon="6.75712">
        <ele>1608</ele>
        <time>2022-01-23T15:10:25Z</time>
      </trkpt>
      <trkpt lat="45.95636" lon="6.75694">
        <ele>1610</ele>
        <time>2022-01-23T15:10:57Z</time>
      </trkpt>
      <trkpt lat="45.9563" lon="6.75681">
        <ele>1612</ele>
        <time>2022-01-23T15:11:03Z</time>
      </trkpt>
      <trkpt lat="45.95628" lon="6.7567">
        <ele>1612</ele>
        <time>2022-01-23T15:11:08Z</time>
      </trkpt>
      <trkpt lat="45.95628" lon="6.75659">
        <ele>1611</ele>
        <time>2022-01-23T15:11:14Z</time>
      </trkpt>
      <trkpt lat="45.95629" lon="6.75648">
        <ele>1610</ele>
        <time>2022-01-23T15:11:21Z</time>
      </trkpt>
      <trkpt lat="45.95634" lon="6.75604">
        <ele>1608</ele>
        <time>2022-01-23T15:11:44Z</time>
      </trkpt>
      <trkpt lat="45.95634" lon="6.75588">
        <ele>1608</ele>
        <time>2022-01-23T15:11:50Z</time>
      </trkpt>
      <trkpt lat="45.95636" lon="6.75574">
        <ele>1609</ele>
        <time>2022-01-23T15:11:56Z</time>
      </trkpt>
      <trkpt lat="45.95635" lon="6.75563">
        <ele>1609</ele>
        <time>2022-01-23T15:11:59Z</time>
      </trkpt>
      <trkpt lat="45.95638" lon="6.75552">
        <ele>1609</ele>
        <time>2022-01-23T15:12:06Z</time>
      </trkpt>
      <trkpt lat="45.9564" lon="6.75536">
        <ele>1610</ele>
        <time>2022-01-23T15:12:14Z</time>
      </trkpt>
      <trkpt lat="45.95643" lon="6.75526">
        <ele>1611</ele>
        <time>2022-01-23T15:12:21Z</time>
      </trkpt>
      <trkpt lat="45.95646" lon="6.75516">
        <ele>1612</ele>
        <time>2022-01-23T15:12:29Z</time>
      </trkpt>
      <trkpt lat="45.95648" lon="6.75505">
        <ele>1612</ele>
        <time>2022-01-23T15:12:34Z</time>
      </trkpt>
      <trkpt lat="45.95649" lon="6.75495">
        <ele>1612</ele>
        <time>2022-01-23T15:12:44Z</time>
      </trkpt>
      <trkpt lat="45.95651" lon="6.75474">
        <ele>1612</ele>
        <time>2022-01-23T15:12:53Z</time>
      </trkpt>
      <trkpt lat="45.95653" lon="6.75421">
        <ele>1610</ele>
        <time>2022-01-23T15:13:22Z</time>
      </trkpt>
      <trkpt lat="45.95654" lon="6.75411">
        <ele>1609</ele>
        <time>2022-01-23T15:13:28Z</time>
      </trkpt>
      <trkpt lat="45.95654" lon="6.75401">
        <ele>1609</ele>
        <time>2022-01-23T15:13:34Z</time>
      </trkpt>
      <trkpt lat="45.95648" lon="6.75394">
        <ele>1609</ele>
        <time>2022-01-23T15:13:40Z</time>
      </trkpt>
      <trkpt lat="45.95648" lon="6.75383">
        <ele>1609</ele>
        <time>2022-01-23T15:13:48Z</time>
      </trkpt>
      <trkpt lat="45.95647" lon="6.75361">
        <ele>1609</ele>
        <time>2022-01-23T15:14:02Z</time>
      </trkpt>
      <trkpt lat="45.95644" lon="6.75349">
        <ele>1609</ele>
        <time>2022-01-23T15:14:09Z</time>
      </trkpt>
      <trkpt lat="45.95644" lon="6.75335">
        <ele>1609</ele>
        <time>2022-01-23T15:14:14Z</time>
      </trkpt>
      <trkpt lat="45.95635" lon="6.75312">
        <ele>1611</ele>
        <time>2022-01-23T15:14:29Z</time>
      </trkpt>
      <trkpt lat="45.95629" lon="6.75306">
        <ele>1612</ele>
        <time>2022-01-23T15:14:34Z</time>
      </trkpt>
      <trkpt lat="45.95622" lon="6.75299">
        <ele>1612</ele>
        <time>2022-01-23T15:14:40Z</time>
      </trkpt>
      <trkpt lat="45.95617" lon="6.75287">
        <ele>1612</ele>
        <time>2022-01-23T15:14:49Z</time>
      </trkpt>
      <trkpt lat="45.95613" lon="6.7524">
        <ele>1614</ele>
        <time>2022-01-23T15:15:23Z</time>
      </trkpt>
      <trkpt lat="45.95612" lon="6.75229">
        <ele>1614</ele>
        <time>2022-01-23T15:15:28Z</time>
      </trkpt>
      <trkpt lat="45.95611" lon="6.75213">
        <ele>1615</ele>
        <time>2022-01-23T15:15:38Z</time>
      </trkpt>
      <trkpt lat="45.95607" lon="6.75179">
        <ele>1615</ele>
        <time>2022-01-23T15:15:54Z</time>
      </trkpt>
      <trkpt lat="45.95607" lon="6.75157">
        <ele>1616</ele>
        <time>2022-01-23T15:16:00Z</time>
      </trkpt>
      <trkpt lat="45.95604" lon="6.75123">
        <ele>1615</ele>
        <time>2022-01-23T15:16:12Z</time>
      </trkpt>
      <trkpt lat="45.95604" lon="6.75112">
        <ele>1615</ele>
        <time>2022-01-23T15:16:18Z</time>
      </trkpt>
      <trkpt lat="45.95605" lon="6.75101">
        <ele>1614</ele>
        <time>2022-01-23T15:16:24Z</time>
      </trkpt>
      <trkpt lat="45.95604" lon="6.75091">
        <ele>1613</ele>
        <time>2022-01-23T15:16:30Z</time>
      </trkpt>
      <trkpt lat="45.95603" lon="6.75079">
        <ele>1612</ele>
        <time>2022-01-23T15:16:36Z</time>
      </trkpt>
      <trkpt lat="45.956" lon="6.75068">
        <ele>1611</ele>
        <time>2022-01-23T15:16:41Z</time>
      </trkpt>
      <trkpt lat="45.95601" lon="6.75058">
        <ele>1610</ele>
        <time>2022-01-23T15:16:47Z</time>
      </trkpt>
      <trkpt lat="45.95596" lon="6.75049">
        <ele>1610</ele>
        <time>2022-01-23T15:17:23Z</time>
      </trkpt>
      <trkpt lat="45.95613" lon="6.75046">
        <ele>1612</ele>
        <time>2022-01-23T15:18:00Z</time>
      </trkpt>
      <trkpt lat="45.9562" lon="6.75044">
        <ele>1613</ele>
        <time>2022-01-23T15:18:06Z</time>
      </trkpt>
      <trkpt lat="45.95628" lon="6.75041">
        <ele>1614</ele>
        <time>2022-01-23T15:18:15Z</time>
      </trkpt>
      <trkpt lat="45.95635" lon="6.75037">
        <ele>1616</ele>
        <time>2022-01-23T15:18:21Z</time>
      </trkpt>
      <trkpt lat="45.95642" lon="6.75033">
        <ele>1617</ele>
        <time>2022-01-23T15:18:31Z</time>
      </trkpt>
      <trkpt lat="45.9565" lon="6.7503">
        <ele>1617</ele>
        <time>2022-01-23T15:18:37Z</time>
      </trkpt>
      <trkpt lat="45.95657" lon="6.75025">
        <ele>1618</ele>
        <time>2022-01-23T15:18:43Z</time>
      </trkpt>
      <trkpt lat="45.95666" lon="6.75008">
        <ele>1618</ele>
        <time>2022-01-23T15:18:55Z</time>
      </trkpt>
      <trkpt lat="45.95671" lon="6.75005">
        <ele>1619</ele>
        <time>2022-01-23T15:19:25Z</time>
      </trkpt>
      <trkpt lat="45.95669" lon="6.75014">
        <ele>1618</ele>
        <time>2022-01-23T15:19:52Z</time>
      </trkpt>
      <trkpt lat="45.95675" lon="6.7501">
        <ele>1606</ele>
        <time>2022-01-23T15:24:16Z</time>
      </trkpt>
      <trkpt lat="45.95671" lon="6.75001">
        <ele>1605</ele>
        <time>2022-01-23T15:25:20Z</time>
      </trkpt>
      <trkpt lat="45.95671" lon="6.75002">
        <ele>1612</ele>
        <time>2022-01-23T15:40:04Z</time>
      </trkpt>
      <trkpt lat="45.95673" lon="6.75005">
        <ele>1612</ele>
        <time>2022-01-23T15:42:15Z</time>
      </trkpt>
      <trkpt lat="45.95657" lon="6.75002">
        <ele>1613</ele>
        <time>2022-01-23T15:46:29Z</time>
      </trkpt>
      <trkpt lat="45.95641" lon="6.74998">
        <ele>1611</ele>
        <time>2022-01-23T15:46:31Z</time>
      </trkpt>
      <trkpt lat="45.95627" lon="6.74978">
        <ele>1610</ele>
        <time>2022-01-23T15:46:34Z</time>
      </trkpt>
      <trkpt lat="45.95614" lon="6.74972">
        <ele>1608</ele>
        <time>2022-01-23T15:46:36Z</time>
      </trkpt>
      <trkpt lat="45.9561" lon="6.74957">
        <ele>1606</ele>
        <time>2022-01-23T15:46:38Z</time>
      </trkpt>
      <trkpt lat="45.95604" lon="6.74941">
        <ele>1605</ele>
        <time>2022-01-23T15:46:40Z</time>
      </trkpt>
      <trkpt lat="45.95592" lon="6.74927">
        <ele>1602</ele>
        <time>2022-01-23T15:46:43Z</time>
      </trkpt>
      <trkpt lat="45.95591" lon="6.74909">
        <ele>1599</ele>
        <time>2022-01-23T15:46:45Z</time>
      </trkpt>
      <trkpt lat="45.95596" lon="6.749">
        <ele>1597</ele>
        <time>2022-01-23T15:46:46Z</time>
      </trkpt>
      <trkpt lat="45.95592" lon="6.74885">
        <ele>1594</ele>
        <time>2022-01-23T15:46:48Z</time>
      </trkpt>
      <trkpt lat="45.95581" lon="6.74869">
        <ele>1592</ele>
        <time>2022-01-23T15:46:51Z</time>
      </trkpt>
      <trkpt lat="45.95583" lon="6.74853">
        <ele>1589</ele>
        <time>2022-01-23T15:46:53Z</time>
      </trkpt>
      <trkpt lat="45.95574" lon="6.74832">
        <ele>1586</ele>
        <time>2022-01-23T15:46:57Z</time>
      </trkpt>
      <trkpt lat="45.95565" lon="6.7482">
        <ele>1585</ele>
        <time>2022-01-23T15:46:59Z</time>
      </trkpt>
      <trkpt lat="45.95566" lon="6.74803">
        <ele>1581</ele>
        <time>2022-01-23T15:47:02Z</time>
      </trkpt>
      <trkpt lat="45.95575" lon="6.74791">
        <ele>1577</ele>
        <time>2022-01-23T15:47:04Z</time>
      </trkpt>
      <trkpt lat="45.95587" lon="6.74785">
        <ele>1575</ele>
        <time>2022-01-23T15:47:06Z</time>
      </trkpt>
      <trkpt lat="45.95601" lon="6.74776">
        <ele>1572</ele>
        <time>2022-01-23T15:47:08Z</time>
      </trkpt>
      <trkpt lat="45.95615" lon="6.74763">
        <ele>1569</ele>
        <time>2022-01-23T15:47:10Z</time>
      </trkpt>
      <trkpt lat="45.95624" lon="6.74747">
        <ele>1568</ele>
        <time>2022-01-23T15:47:12Z</time>
      </trkpt>
      <trkpt lat="45.95622" lon="6.74728">
        <ele>1566</ele>
        <time>2022-01-23T15:47:14Z</time>
      </trkpt>
      <trkpt lat="45.95591" lon="6.74702">
        <ele>1564</ele>
        <time>2022-01-23T15:47:18Z</time>
      </trkpt>
      <trkpt lat="45.95582" lon="6.74683">
        <ele>1562</ele>
        <time>2022-01-23T15:47:20Z</time>
      </trkpt>
      <trkpt lat="45.95573" lon="6.74666">
        <ele>1557</ele>
        <time>2022-01-23T15:47:22Z</time>
      </trkpt>
      <trkpt lat="45.95562" lon="6.74648">
        <ele>1551</ele>
        <time>2022-01-23T15:47:24Z</time>
      </trkpt>
      <trkpt lat="45.9556" lon="6.74629">
        <ele>1547</ele>
        <time>2022-01-23T15:47:26Z</time>
      </trkpt>
      <trkpt lat="45.95542" lon="6.74603">
        <ele>1542</ele>
        <time>2022-01-23T15:47:30Z</time>
      </trkpt>
      <trkpt lat="45.95545" lon="6.74589">
        <ele>1540</ele>
        <time>2022-01-23T15:47:32Z</time>
      </trkpt>
      <trkpt lat="45.95561" lon="6.7457">
        <ele>1535</ele>
        <time>2022-01-23T15:47:36Z</time>
      </trkpt>
      <trkpt lat="45.95557" lon="6.74548">
        <ele>1531</ele>
        <time>2022-01-23T15:47:39Z</time>
      </trkpt>
      <trkpt lat="45.95557" lon="6.7453">
        <ele>1528</ele>
        <time>2022-01-23T15:47:41Z</time>
      </trkpt>
      <trkpt lat="45.95557" lon="6.74519">
        <ele>1527</ele>
        <time>2022-01-23T15:47:42Z</time>
      </trkpt>
      <trkpt lat="45.95546" lon="6.74505">
        <ele>1525</ele>
        <time>2022-01-23T15:47:44Z</time>
      </trkpt>
      <trkpt lat="45.95531" lon="6.74505">
        <ele>1520</ele>
        <time>2022-01-23T15:47:46Z</time>
      </trkpt>
      <trkpt lat="45.95519" lon="6.74507">
        <ele>1515</ele>
        <time>2022-01-23T15:47:48Z</time>
      </trkpt>
      <trkpt lat="45.95506" lon="6.74506">
        <ele>1513</ele>
        <time>2022-01-23T15:47:50Z</time>
      </trkpt>
      <trkpt lat="45.955" lon="6.74502">
        <ele>1510</ele>
        <time>2022-01-23T15:47:51Z</time>
      </trkpt>
      <trkpt lat="45.95487" lon="6.74504">
        <ele>1507</ele>
        <time>2022-01-23T15:47:53Z</time>
      </trkpt>
      <trkpt lat="45.95468" lon="6.74515">
        <ele>1500</ele>
        <time>2022-01-23T15:47:56Z</time>
      </trkpt>
      <trkpt lat="45.95455" lon="6.74526">
        <ele>1496</ele>
        <time>2022-01-23T15:47:58Z</time>
      </trkpt>
      <trkpt lat="45.95439" lon="6.74527">
        <ele>1491</ele>
        <time>2022-01-23T15:48:00Z</time>
      </trkpt>
      <trkpt lat="45.95426" lon="6.74536">
        <ele>1486</ele>
        <time>2022-01-23T15:48:02Z</time>
      </trkpt>
      <trkpt lat="45.95414" lon="6.74536">
        <ele>1484</ele>
        <time>2022-01-23T15:48:04Z</time>
      </trkpt>
      <trkpt lat="45.954" lon="6.74534">
        <ele>1481</ele>
        <time>2022-01-23T15:48:06Z</time>
      </trkpt>
      <trkpt lat="45.95384" lon="6.74538">
        <ele>1477</ele>
        <time>2022-01-23T15:48:08Z</time>
      </trkpt>
      <trkpt lat="45.95368" lon="6.7453">
        <ele>1475</ele>
        <time>2022-01-23T15:48:10Z</time>
      </trkpt>
      <trkpt lat="45.95353" lon="6.74525">
        <ele>1472</ele>
        <time>2022-01-23T15:48:12Z</time>
      </trkpt>
      <trkpt lat="45.95334" lon="6.74531">
        <ele>1468</ele>
        <time>2022-01-23T15:48:14Z</time>
      </trkpt>
      <trkpt lat="45.95325" lon="6.7453">
        <ele>1466</ele>
        <time>2022-01-23T15:48:15Z</time>
      </trkpt>
      <trkpt lat="45.95319" lon="6.74525">
        <ele>1465</ele>
        <time>2022-01-23T15:48:16Z</time>
      </trkpt>
      <trkpt lat="45.95311" lon="6.7451">
        <ele>1462</ele>
        <time>2022-01-23T15:48:18Z</time>
      </trkpt>
      <trkpt lat="45.95302" lon="6.74489">
        <ele>1460</ele>
        <time>2022-01-23T15:48:21Z</time>
      </trkpt>
      <trkpt lat="45.95285" lon="6.74467">
        <ele>1455</ele>
        <time>2022-01-23T15:48:25Z</time>
      </trkpt>
      <trkpt lat="45.95282" lon="6.74445">
        <ele>1452</ele>
        <time>2022-01-23T15:48:27Z</time>
      </trkpt>
      <trkpt lat="45.95278" lon="6.74435">
        <ele>1451</ele>
        <time>2022-01-23T15:48:28Z</time>
      </trkpt>
      <trkpt lat="45.9526" lon="6.74417">
        <ele>1450</ele>
        <time>2022-01-23T15:48:31Z</time>
      </trkpt>
      <trkpt lat="45.95257" lon="6.74408">
        <ele>1449</ele>
        <time>2022-01-23T15:48:32Z</time>
      </trkpt>
      <trkpt lat="45.95255" lon="6.74397">
        <ele>1449</ele>
        <time>2022-01-23T15:48:33Z</time>
      </trkpt>
      <trkpt lat="45.95237" lon="6.74376">
        <ele>1447</ele>
        <time>2022-01-23T15:48:37Z</time>
      </trkpt>
      <trkpt lat="45.95222" lon="6.74367">
        <ele>1446</ele>
        <time>2022-01-23T15:48:39Z</time>
      </trkpt>
      <trkpt lat="45.95207" lon="6.74367">
        <ele>1445</ele>
        <time>2022-01-23T15:48:41Z</time>
      </trkpt>
      <trkpt lat="45.95192" lon="6.74377">
        <ele>1443</ele>
        <time>2022-01-23T15:48:43Z</time>
      </trkpt>
      <trkpt lat="45.95176" lon="6.74376">
        <ele>1440</ele>
        <time>2022-01-23T15:48:45Z</time>
      </trkpt>
      <trkpt lat="45.95168" lon="6.7438">
        <ele>1439</ele>
        <time>2022-01-23T15:48:46Z</time>
      </trkpt>
      <trkpt lat="45.95154" lon="6.74388">
        <ele>1435</ele>
        <time>2022-01-23T15:48:48Z</time>
      </trkpt>
      <trkpt lat="45.95144" lon="6.74382">
        <ele>1431</ele>
        <time>2022-01-23T15:48:50Z</time>
      </trkpt>
      <trkpt lat="45.95142" lon="6.74371">
        <ele>1429</ele>
        <time>2022-01-23T15:48:52Z</time>
      </trkpt>
      <trkpt lat="45.9514" lon="6.74354">
        <ele>1425</ele>
        <time>2022-01-23T15:48:54Z</time>
      </trkpt>
      <trkpt lat="45.95127" lon="6.74339">
        <ele>1422</ele>
        <time>2022-01-23T15:48:56Z</time>
      </trkpt>
      <trkpt lat="45.95122" lon="6.74317">
        <ele>1418</ele>
        <time>2022-01-23T15:48:58Z</time>
      </trkpt>
      <trkpt lat="45.95132" lon="6.74302">
        <ele>1415</ele>
        <time>2022-01-23T15:49:01Z</time>
      </trkpt>
      <trkpt lat="45.95132" lon="6.74282">
        <ele>1410</ele>
        <time>2022-01-23T15:49:03Z</time>
      </trkpt>
      <trkpt lat="45.95131" lon="6.74272">
        <ele>1406</ele>
        <time>2022-01-23T15:49:04Z</time>
      </trkpt>
      <trkpt lat="45.95139" lon="6.74255">
        <ele>1401</ele>
        <time>2022-01-23T15:49:07Z</time>
      </trkpt>
      <trkpt lat="45.95135" lon="6.74235">
        <ele>1395</ele>
        <time>2022-01-23T15:49:09Z</time>
      </trkpt>
      <trkpt lat="45.95117" lon="6.74223">
        <ele>1391</ele>
        <time>2022-01-23T15:49:12Z</time>
      </trkpt>
      <trkpt lat="45.95102" lon="6.74225">
        <ele>1387</ele>
        <time>2022-01-23T15:49:14Z</time>
      </trkpt>
      <trkpt lat="45.95095" lon="6.74214">
        <ele>1383</ele>
        <time>2022-01-23T15:49:16Z</time>
      </trkpt>
      <trkpt lat="45.95081" lon="6.74173">
        <ele>1377</ele>
        <time>2022-01-23T15:49:20Z</time>
      </trkpt>
      <trkpt lat="45.95069" lon="6.74134">
        <ele>1372</ele>
        <time>2022-01-23T15:49:24Z</time>
      </trkpt>
      <trkpt lat="45.95073" lon="6.74114">
        <ele>1371</ele>
        <time>2022-01-23T15:49:26Z</time>
      </trkpt>
      <trkpt lat="45.95081" lon="6.74097">
        <ele>1370</ele>
        <time>2022-01-23T15:49:28Z</time>
      </trkpt>
      <trkpt lat="45.95085" lon="6.74078">
        <ele>1369</ele>
        <time>2022-01-23T15:49:31Z</time>
      </trkpt>
      <trkpt lat="45.95085" lon="6.74063">
        <ele>1367</ele>
        <time>2022-01-23T15:49:33Z</time>
      </trkpt>
      <trkpt lat="45.95089" lon="6.74051">
        <ele>1364</ele>
        <time>2022-01-23T15:49:35Z</time>
      </trkpt>
      <trkpt lat="45.9509" lon="6.74039">
        <ele>1363</ele>
        <time>2022-01-23T15:49:37Z</time>
      </trkpt>
      <trkpt lat="45.95088" lon="6.74025">
        <ele>1359</ele>
        <time>2022-01-23T15:49:39Z</time>
      </trkpt>
      <trkpt lat="45.95091" lon="6.74012">
        <ele>1358</ele>
        <time>2022-01-23T15:49:41Z</time>
      </trkpt>
      <trkpt lat="45.95095" lon="6.74002">
        <ele>1355</ele>
        <time>2022-01-23T15:49:43Z</time>
      </trkpt>
      <trkpt lat="45.95101" lon="6.73997">
        <ele>1352</ele>
        <time>2022-01-23T15:49:55Z</time>
      </trkpt>
      <trkpt lat="45.95106" lon="6.73984">
        <ele>1351</ele>
        <time>2022-01-23T15:50:17Z</time>
      </trkpt>
    </trkseg>
  </trk>
</gpx>